Time,TemperatureF,DewpointF,PressureIn,WindDirection,WindDirectionDegrees,WindSpeedMPH,WindSpeedGustMPH,Humidity,HourlyPrecipIn,Conditions,Clouds,dailyrainin,SoftwareType,DateUTC
2013-01-07 00:00:00,17.6,8.2,30.29,SSE,158,0.0,0.0,66,0.00,,CLR,0.00,VWS V14.01,2013-01-07 06:00:00,
2013-01-07 00:01:00,17.6,8.2,30.29,SSE,158,0.0,0.0,66,0.00,,CLR,0.00,VWS V14.01,2013-01-07 06:01:00,
2013-01-07 00:02:00,17.6,8.2,30.29,SSE,158,0.0,0.0,66,0.00,,CLR,0.00,VWS V14.01,2013-01-07 06:02:00,
2013-01-07 00:04:00,17.7,8.3,30.29,SSE,158,0.0,0.0,66,0.00,,CLR,0.00,VWS V14.01,2013-01-07 06:04:00,
2013-01-07 00:06:00,17.7,8.3,30.29,SSE,158,0.0,0.0,66,0.00,,CLR,0.00,VWS V14.01,2013-01-07 06:06:00,
2013-01-07 00:08:00,17.7,8.3,30.29,SSE,158,0.0,0.0,66,0.00,,CLR,0.00,VWS V14.01,2013-01-07 06:08:00,
2013-01-07 00:12:00,17.7,8.3,30.29,SSE,158,0.0,0.0,66,0.00,,CLR,0.00,VWS V14.01,2013-01-07 06:12:00,
2013-01-07 00:14:00,17.7,8.3,30.29,SSE,158,0.0,0.0,66,0.00,,CLR,0.00,VWS V14.01,2013-01-07 06:14:00,
2013-01-07 00:16:00,17.7,8.3,30.29,SSE,158,0.0,0.0,66,0.00,,CLR,0.00,VWS V14.01,2013-01-07 06:16:00,
2013-01-07 00:17:00,17.7,8.3,30.29,SSE,158,0.0,0.0,66,0.00,,CLR,0.00,VWS V14.01,2013-01-07 06:17:00,
2013-01-07 00:18:00,17.7,8.3,30.29,SSE,158,0.0,0.0,66,0.00,,CLR,0.00,VWS V14.01,2013-01-07 06:18:00,
2013-01-07 00:22:00,17.7,8.3,30.29,SSE,158,0.0,0.0,66,0.00,,CLR,0.00,VWS V14.01,2013-01-07 06:22:00,
2013-01-07 00:25:00,17.7,8.3,30.29,SSE,158,0.0,0.0,66,0.00,,CLR,0.00,VWS V14.01,2013-01-07 06:25:00,
2013-01-07 00:28:00,17.6,8.2,30.28,SSE,158,0.0,0.0,66,0.00,,CLR,0.00,VWS V14.01,2013-01-07 06:28:00,
2013-01-07 00:30:00,17.7,8.3,30.28,SSE,158,0.0,0.0,66,0.00,,CLR,0.00,VWS V14.01,2013-01-07 06:30:00,
2013-01-07 00:34:00,17.7,8.3,30.28,SSE,158,0.0,0.0,66,0.00,,CLR,0.00,VWS V14.01,2013-01-07 06:34:00,
2013-01-07 00:36:00,17.7,8.3,30.28,SSE,158,0.0,0.0,66,0.00,,CLR,0.00,VWS V14.01,2013-01-07 06:36:00,
2013-01-07 00:38:00,17.7,8.3,30.27,SSE,158,0.0,0.0,66,0.00,,CLR,0.00,VWS V14.01,2013-01-07 06:38:00,
2013-01-07 00:39:00,17.7,8.3,30.27,SSE,158,0.0,0.0,66,0.00,,CLR,0.00,VWS V14.01,2013-01-07 06:39:00,
2013-01-07 00:44:00,17.6,8.2,30.28,SSE,158,0.0,0.0,66,0.00,,CLR,0.00,VWS V14.01,2013-01-07 06:44:00,
2013-01-07 00:49:00,17.4,8.0,30.27,SSE,158,0.0,0.0,66,0.00,,CLR,0.00,VWS V14.01,2013-01-07 06:49:00,
2013-01-07 00:50:00,17.4,8.0,30.27,SSE,158,0.0,0.0,66,0.00,,CLR,0.00,VWS V14.01,2013-01-07 06:50:00,
2013-01-07 00:51:00,17.4,8.0,30.27,SSE,158,0.0,0.0,66,0.00,,CLR,0.00,VWS V14.01,2013-01-07 06:51:00,
2013-01-07 00:52:00,17.2,7.8,30.27,SSE,158,0.0,0.0,66,0.00,,CLR,0.00,VWS V14.01,2013-01-07 06:52:00,
2013-01-07 00:54:00,17.2,7.8,30.28,SSE,158,0.0,0.0,66,0.00,,CLR,0.00,VWS V14.01,2013-01-07 06:54:00,
2013-01-07 00:56:00,17.2,7.8,30.27,SSE,158,0.0,0.0,66,0.00,,CLR,0.00,VWS V14.01,2013-01-07 06:56:00,
2013-01-07 00:58:00,17.2,7.8,30.27,SSE,158,0.0,0.0,66,0.00,,CLR,0.00,VWS V14.01,2013-01-07 06:58:00,
2013-01-07 01:00:00,17.2,7.8,30.27,SSE,158,0.0,0.0,66,0.00,,CLR,0.00,VWS V14.01,2013-01-07 07:00:00,
2013-01-07 01:01:00,17.2,7.8,30.27,SSE,158,0.0,0.0,66,0.00,,CLR,0.00,VWS V14.01,2013-01-07 07:01:00,
2013-01-07 01:05:00,17.2,7.8,30.27,SSE,158,0.0,0.0,66,0.00,,CLR,0.00,VWS V14.01,2013-01-07 07:05:00,
2013-01-07 01:06:00,17.2,7.8,30.27,SSE,158,0.0,0.0,66,0.00,,CLR,0.00,VWS V14.01,2013-01-07 07:06:00,
2013-01-07 01:09:00,17.2,7.8,30.27,SSE,158,0.0,0.0,66,0.00,,CLR,0.00,VWS V14.01,2013-01-07 07:09:00,
2013-01-07 01:12:00,17.0,7.9,30.27,SSE,158,0.0,0.0,67,0.00,,CLR,0.00,VWS V14.01,2013-01-07 07:12:00,
2013-01-07 01:14:00,17.0,7.9,30.27,SSE,158,0.0,0.0,67,0.00,,CLR,0.00,VWS V14.01,2013-01-07 07:14:00,
2013-01-07 01:15:00,17.0,7.9,30.27,SSE,158,0.0,0.0,67,0.00,,CLR,0.00,VWS V14.01,2013-01-07 07:15:00,
2013-01-07 01:18:00,17.0,7.9,30.27,SSE,158,0.0,0.0,67,0.00,,CLR,0.00,VWS V14.01,2013-01-07 07:18:00,
2013-01-07 01:22:00,17.2,8.1,30.27,SSE,158,0.0,0.0,67,0.00,,CLR,0.00,VWS V14.01,2013-01-07 07:22:00,
2013-01-07 01:23:00,17.2,8.1,30.27,SSE,158,0.0,0.0,67,0.00,,CLR,0.00,VWS V14.01,2013-01-07 07:23:00,
2013-01-07 01:24:00,17.2,8.1,30.27,SSE,158,0.0,0.0,67,0.00,,CLR,0.00,VWS V14.01,2013-01-07 07:24:00,
2013-01-07 01:27:00,17.2,8.1,30.27,SSE,158,0.0,0.0,67,0.00,,CLR,0.00,VWS V14.01,2013-01-07 07:27:00,
2013-01-07 01:28:00,17.2,8.1,30.27,SSE,158,0.0,0.0,67,0.00,,CLR,0.00,VWS V14.01,2013-01-07 07:28:00,
2013-01-07 01:29:00,17.2,8.1,30.27,SSE,158,0.0,0.0,67,0.00,,CLR,0.00,VWS V14.01,2013-01-07 07:29:00,
2013-01-07 01:32:00,17.2,8.1,30.27,SSE,158,0.0,0.0,67,0.00,,CLR,0.00,VWS V14.01,2013-01-07 07:32:00,
2013-01-07 01:35:00,17.2,8.1,30.27,SSE,158,0.0,0.0,67,0.00,,CLR,0.00,VWS V14.01,2013-01-07 07:35:00,
2013-01-07 01:36:00,17.2,8.1,30.27,SSE,158,0.0,0.0,67,0.00,,CLR,0.00,VWS V14.01,2013-01-07 07:36:00,
2013-01-07 01:38:00,17.2,8.1,30.27,SSE,158,0.0,0.0,67,0.00,,CLR,0.00,VWS V14.01,2013-01-07 07:38:00,
2013-01-07 01:41:00,17.4,8.3,30.28,SSE,158,0.0,0.0,67,0.00,,CLR,0.00,VWS V14.01,2013-01-07 07:41:00,
2013-01-07 01:42:00,17.2,8.1,30.27,SSE,158,0.0,0.0,67,0.00,,CLR,0.00,VWS V14.01,2013-01-07 07:42:00,
2013-01-07 01:44:00,17.4,8.3,30.28,SSE,158,0.0,0.0,67,0.00,,CLR,0.00,VWS V14.01,2013-01-07 07:44:00,
2013-01-07 01:49:00,17.7,8.9,30.28,SSE,158,0.0,0.0,68,0.00,,CLR,0.00,VWS V14.01,2013-01-07 07:49:00,
2013-01-07 01:50:00,17.7,8.6,30.27,SSE,158,0.0,0.0,67,0.00,,CLR,0.00,VWS V14.01,2013-01-07 07:50:00,
2013-01-07 01:52:00,17.7,8.6,30.28,SSE,158,0.0,0.0,67,0.00,,CLR,0.00,VWS V14.01,2013-01-07 07:52:00,
2013-01-07 01:54:00,17.7,8.6,30.28,SSE,158,0.0,0.0,67,0.00,,CLR,0.00,VWS V14.01,2013-01-07 07:54:00,
2013-01-07 01:58:00,17.7,8.6,30.27,SSE,158,0.0,0.0,67,0.00,,CLR,0.00,VWS V14.01,2013-01-07 07:58:00,
2013-01-07 02:03:00,17.7,8.6,30.27,SSE,158,0.0,0.0,67,0.00,,CLR,0.00,VWS V14.01,2013-01-07 08:03:00,
2013-01-07 02:04:00,17.7,8.6,30.28,SSE,158,0.0,0.0,67,0.00,,CLR,0.00,VWS V14.01,2013-01-07 08:04:00,
2013-01-07 02:06:00,17.7,8.6,30.28,SSE,158,0.0,0.0,67,0.00,,CLR,0.00,VWS V14.01,2013-01-07 08:06:00,
2013-01-07 02:10:00,17.7,8.6,30.27,SSE,158,0.0,0.0,67,0.00,,CLR,0.00,VWS V14.01,2013-01-07 08:10:00,
2013-01-07 02:11:00,17.7,8.6,30.27,SSE,158,0.0,0.0,67,0.00,,CLR,0.00,VWS V14.01,2013-01-07 08:11:00,
2013-01-07 02:16:00,17.7,8.6,30.27,SSE,158,0.0,0.0,67,0.00,,CLR,0.00,VWS V14.01,2013-01-07 08:16:00,
2013-01-07 02:17:00,17.7,8.6,30.28,SSE,158,0.0,0.0,67,0.00,,CLR,0.00,VWS V14.01,2013-01-07 08:17:00,
2013-01-07 02:19:00,17.7,8.6,30.27,South,180,0.0,0.0,67,0.00,,CLR,0.00,VWS V14.01,2013-01-07 08:19:00,
2013-01-07 02:22:00,17.7,8.6,30.28,South,180,0.0,0.0,67,0.00,,CLR,0.00,VWS V14.01,2013-01-07 08:22:00,
2013-01-07 02:23:00,17.7,8.6,30.28,South,180,0.0,0.0,67,0.00,,CLR,0.00,VWS V14.01,2013-01-07 08:23:00,
2013-01-07 02:24:00,17.7,8.6,30.27,SSE,158,0.0,0.0,67,0.00,,CLR,0.00,VWS V14.01,2013-01-07 08:24:00,
2013-01-07 02:28:00,17.7,8.3,30.27,SSE,158,0.0,0.0,66,0.00,,CLR,0.00,VWS V14.01,2013-01-07 08:28:00,
2013-01-07 02:30:00,17.7,8.6,30.27,South,180,0.0,0.0,67,0.00,,CLR,0.00,VWS V14.01,2013-01-07 08:30:00,
2013-01-07 02:31:00,17.7,8.6,30.27,SSE,158,0.0,0.0,67,0.00,,CLR,0.00,VWS V14.01,2013-01-07 08:31:00,
2013-01-07 02:34:00,17.7,8.6,30.28,South,180,0.0,0.0,67,0.00,,CLR,0.00,VWS V14.01,2013-01-07 08:34:00,
2013-01-07 02:36:00,17.7,8.6,30.28,SSW,202,0.0,0.0,67,0.00,,CLR,0.00,VWS V14.01,2013-01-07 08:36:00,
2013-01-07 02:39:00,17.7,8.6,30.28,SSW,202,2.2,2.2,67,0.00,,CLR,0.00,VWS V14.01,2013-01-07 08:39:00,
2013-01-07 02:40:00,17.9,8.8,30.28,SSW,202,0.0,0.0,67,0.00,,CLR,0.00,VWS V14.01,2013-01-07 08:40:00,
2013-01-07 02:42:00,17.9,8.8,30.28,South,180,0.0,0.0,67,0.00,,CLR,0.00,VWS V14.01,2013-01-07 08:42:00,
2013-01-07 02:44:00,17.9,8.8,30.27,South,180,0.0,0.0,67,0.00,,CLR,0.00,VWS V14.01,2013-01-07 08:44:00,
2013-01-07 02:46:00,17.9,8.8,30.28,SSE,158,0.0,0.0,67,0.00,,CLR,0.00,VWS V14.01,2013-01-07 08:46:00,
2013-01-07 02:48:00,17.7,8.3,30.28,SSE,158,0.0,0.0,66,0.00,,CLR,0.00,VWS V14.01,2013-01-07 08:48:00,
2013-01-07 02:53:00,17.7,8.3,30.28,SSE,158,0.0,0.0,66,0.00,,CLR,0.00,VWS V14.01,2013-01-07 08:53:00,
2013-01-07 02:54:00,17.7,8.3,30.28,SSE,158,0.0,0.0,66,0.00,,CLR,0.00,VWS V14.01,2013-01-07 08:54:00,
2013-01-07 02:56:00,17.7,8.3,30.28,South,180,0.0,0.0,66,0.00,,CLR,0.00,VWS V14.01,2013-01-07 08:56:00,
2013-01-07 02:58:00,17.9,8.5,30.28,South,180,0.0,0.0,66,0.00,,CLR,0.00,VWS V14.01,2013-01-07 08:58:00,
2013-01-07 03:01:00,17.9,8.5,30.28,SSE,158,0.0,0.0,66,0.00,,CLR,0.00,VWS V14.01,2013-01-07 09:01:00,
2013-01-07 03:02:00,17.9,8.5,30.28,SSE,158,0.0,0.0,66,0.00,,CLR,0.00,VWS V14.01,2013-01-07 09:02:00,
2013-01-07 03:04:00,17.7,8.3,30.28,SSE,158,0.0,0.0,66,0.00,,CLR,0.00,VWS V14.01,2013-01-07 09:04:00,
2013-01-07 03:06:00,17.7,8.3,30.28,SSE,158,0.0,0.0,66,0.00,,CLR,0.00,VWS V14.01,2013-01-07 09:06:00,
2013-01-07 03:08:00,17.7,8.3,30.27,SSE,158,0.0,0.0,66,0.00,,CLR,0.00,VWS V14.01,2013-01-07 09:08:00,
2013-01-07 03:10:00,17.7,8.3,30.27,SSE,158,0.0,0.0,66,0.00,,CLR,0.00,VWS V14.01,2013-01-07 09:10:00,
2013-01-07 03:11:00,17.7,8.3,30.27,SSE,158,0.0,0.0,66,0.00,,CLR,0.00,VWS V14.01,2013-01-07 09:11:00,
2013-01-07 03:12:00,17.7,8.3,30.27,SSE,158,0.0,0.0,66,0.00,,CLR,0.00,VWS V14.01,2013-01-07 09:12:00,
2013-01-07 03:15:00,17.7,8.3,30.27,SSE,158,0.0,0.0,66,0.00,,CLR,0.00,VWS V14.01,2013-01-07 09:15:00,
2013-01-07 03:17:00,17.4,8.0,30.27,SSE,158,0.0,0.0,66,0.00,,CLR,0.00,VWS V14.01,2013-01-07 09:17:00,
2013-01-07 03:18:00,17.6,8.2,30.27,SSE,158,0.0,0.0,66,0.00,,CLR,0.00,VWS V14.01,2013-01-07 09:18:00,
2013-01-07 03:20:00,17.4,8.0,30.27,SSE,158,0.0,0.0,66,0.00,,CLR,0.00,VWS V14.01,2013-01-07 09:20:00,
2013-01-07 03:21:00,17.4,8.0,30.27,SSE,158,0.0,0.0,66,0.00,,CLR,0.00,VWS V14.01,2013-01-07 09:21:00,
2013-01-07 03:24:00,17.4,8.0,30.27,SSE,158,0.0,0.0,66,0.00,,CLR,0.00,VWS V14.01,2013-01-07 09:24:00,
2013-01-07 03:25:00,17.6,8.2,30.27,SSE,158,0.0,0.0,66,0.00,,CLR,0.00,VWS V14.01,2013-01-07 09:25:00,
2013-01-07 03:28:00,17.7,8.6,30.27,SSE,158,0.0,0.0,67,0.00,,CLR,0.00,VWS V14.01,2013-01-07 09:28:00,
2013-01-07 03:30:00,17.7,8.6,30.27,South,180,0.0,0.0,67,0.00,,CLR,0.00,VWS V14.01,2013-01-07 09:30:00,
2013-01-07 03:32:00,17.7,8.6,30.27,SSE,158,0.0,0.0,67,0.00,,CLR,0.00,VWS V14.01,2013-01-07 09:32:00,
2013-01-07 03:36:00,17.7,8.6,30.27,SSE,158,0.0,0.0,67,0.00,,CLR,0.00,VWS V14.01,2013-01-07 09:36:00,
2013-01-07 03:38:00,17.7,8.6,30.27,SSE,158,0.0,0.0,67,0.00,,CLR,0.00,VWS V14.01,2013-01-07 09:38:00,
2013-01-07 03:39:00,17.7,8.6,30.27,SSE,158,0.0,0.0,67,0.00,,CLR,0.00,VWS V14.01,2013-01-07 09:39:00,
2013-01-07 03:42:00,17.9,8.8,30.27,SSE,158,0.0,5.2,67,0.00,,CLR,0.00,VWS V14.01,2013-01-07 09:42:00,
2013-01-07 03:43:00,17.9,8.8,30.27,SSE,158,0.0,0.0,67,0.00,,CLR,0.00,VWS V14.01,2013-01-07 09:43:00,
2013-01-07 03:44:00,17.9,8.8,30.27,South,180,0.0,0.0,67,0.00,,CLR,0.00,VWS V14.01,2013-01-07 09:44:00,
2013-01-07 03:47:00,17.9,8.8,30.27,SSE,158,1.6,1.6,67,0.00,,CLR,0.00,VWS V14.01,2013-01-07 09:47:00,
2013-01-07 03:50:00,18.1,9.0,30.26,SSE,158,0.0,0.0,67,0.00,,CLR,0.00,VWS V14.01,2013-01-07 09:50:00,
2013-01-07 03:51:00,18.1,9.3,30.26,South,180,3.4,3.4,68,0.00,,CLR,0.00,VWS V14.01,2013-01-07 09:51:00,
2013-01-07 03:55:00,18.5,9.7,30.27,SSE,158,0.0,0.0,68,0.00,,CLR,0.00,VWS V14.01,2013-01-07 09:55:00,
2013-01-07 03:57:00,18.5,9.7,30.26,South,180,0.0,0.0,68,0.00,,CLR,0.00,VWS V14.01,2013-01-07 09:57:00,
2013-01-07 04:00:00,18.8,10.0,30.26,SSE,158,4.0,4.0,68,0.00,,CLR,0.00,VWS V14.01,2013-01-07 10:00:00,
2013-01-07 04:02:00,18.8,10.0,30.26,SSE,158,0.0,0.0,68,0.00,,CLR,0.00,VWS V14.01,2013-01-07 10:02:00,
2013-01-07 04:04:00,19.0,10.2,30.26,SSE,158,9.8,9.8,68,0.00,,CLR,0.00,VWS V14.01,2013-01-07 10:04:00,
2013-01-07 04:06:00,19.0,10.2,30.26,SSE,158,0.0,9.8,68,0.00,,CLR,0.00,VWS V14.01,2013-01-07 10:06:00,
2013-01-07 04:11:00,19.5,10.7,30.26,South,180,0.0,0.0,68,0.00,,CLR,0.00,VWS V14.01,2013-01-07 10:11:00,
2013-01-07 04:12:00,19.5,10.7,30.26,SSE,158,0.0,0.0,68,0.00,,CLR,0.00,VWS V14.01,2013-01-07 10:12:00,
2013-01-07 04:17:00,19.5,10.7,30.25,SSE,158,0.0,0.0,68,0.00,,CLR,0.00,VWS V14.01,2013-01-07 10:17:00,
2013-01-07 04:18:00,19.7,10.9,30.25,North,0,0.0,0.0,68,0.00,,CLR,0.00,VWS V14.01,2013-01-07 10:18:00,
2013-01-07 04:19:00,19.7,10.9,30.25,SSW,202,1.6,1.6,68,0.00,,CLR,0.00,VWS V14.01,2013-01-07 10:19:00,
2013-01-07 04:24:00,19.9,11.1,30.26,SSW,202,0.0,5.8,68,0.00,,CLR,0.00,VWS V14.01,2013-01-07 10:24:00,
2013-01-07 04:25:00,20.1,11.2,30.26,SSW,202,6.6,6.6,68,0.00,,CLR,0.00,VWS V14.01,2013-01-07 10:25:00,
2013-01-07 04:26:00,20.1,11.2,30.26,SSW,202,0.0,6.6,68,0.00,,CLR,0.00,VWS V14.01,2013-01-07 10:26:00,
2013-01-07 04:30:00,20.1,11.2,30.26,South,180,6.6,6.6,68,0.00,,CLR,0.00,VWS V14.01,2013-01-07 10:30:00,
2013-01-07 04:32:00,20.1,11.2,30.26,SSE,158,0.0,3.4,68,0.00,,CLR,0.00,VWS V14.01,2013-01-07 10:32:00,
2013-01-07 04:36:00,20.3,11.4,30.26,South,180,0.0,0.0,68,0.00,,CLR,0.00,VWS V14.01,2013-01-07 10:36:00,
2013-01-07 04:38:00,20.3,11.4,30.26,SSW,202,0.0,0.0,68,0.00,,CLR,0.00,VWS V14.01,2013-01-07 10:38:00,
2013-01-07 04:40:00,20.1,11.2,30.26,SSW,202,0.0,0.0,68,0.00,,CLR,0.00,VWS V14.01,2013-01-07 10:40:00,
2013-01-07 04:44:00,20.3,11.4,30.26,SSE,158,2.6,2.6,68,0.00,,CLR,0.00,VWS V14.01,2013-01-07 10:44:00,
2013-01-07 04:45:00,20.3,11.4,30.26,SSE,158,0.0,0.0,68,0.00,,CLR,0.00,VWS V14.01,2013-01-07 10:45:00,
2013-01-07 04:46:00,20.3,11.4,30.26,SW,225,1.2,1.2,68,0.00,,CLR,0.00,VWS V14.01,2013-01-07 10:46:00,
2013-01-07 04:50:00,20.3,11.4,30.26,South,180,0.0,0.0,68,0.00,,CLR,0.00,VWS V14.01,2013-01-07 10:50:00,
2013-01-07 04:52:00,20.3,11.4,30.25,South,180,0.0,0.0,68,0.00,,CLR,0.00,VWS V14.01,2013-01-07 10:52:00,
2013-01-07 04:53:00,20.3,11.4,30.25,South,180,0.0,0.0,68,0.00,,CLR,0.00,VWS V14.01,2013-01-07 10:53:00,
2013-01-07 04:54:00,20.4,11.5,30.25,South,180,0.0,0.0,68,0.00,,CLR,0.00,VWS V14.01,2013-01-07 10:54:00,
2013-01-07 04:55:00,20.4,11.5,30.25,South,180,0.0,0.0,68,0.00,,CLR,0.00,VWS V14.01,2013-01-07 10:55:00,
2013-01-07 04:58:00,20.4,11.5,30.25,South,180,0.0,0.0,68,0.00,,CLR,0.00,VWS V14.01,2013-01-07 10:58:00,
2013-01-07 04:59:00,20.4,11.5,30.25,South,180,0.0,0.0,68,0.00,,CLR,0.00,VWS V14.01,2013-01-07 10:59:00,
2013-01-07 05:01:00,20.4,11.5,30.25,SSE,158,0.0,0.0,68,0.00,,CLR,0.00,VWS V14.01,2013-01-07 11:01:00,
2013-01-07 05:04:00,20.4,11.5,30.24,SSW,202,0.0,0.0,68,0.00,,CLR,0.00,VWS V14.01,2013-01-07 11:04:00,
2013-01-07 05:06:00,20.6,11.7,30.24,South,180,9.2,9.2,68,0.00,,CLR,0.00,VWS V14.01,2013-01-07 11:06:00,
2013-01-07 05:09:00,20.8,11.9,30.24,South,180,0.0,0.0,68,0.00,,CLR,0.00,VWS V14.01,2013-01-07 11:09:00,
2013-01-07 05:10:00,20.8,11.9,30.24,SSW,202,0.0,2.2,68,0.00,,CLR,0.00,VWS V14.01,2013-01-07 11:10:00,
2013-01-07 05:11:00,20.8,11.9,30.24,SSW,202,0.0,0.0,68,0.00,,CLR,0.00,VWS V14.01,2013-01-07 11:11:00,
2013-01-07 05:16:00,21.0,12.1,30.25,South,180,1.2,1.2,68,0.00,,CLR,0.00,VWS V14.01,2013-01-07 11:16:00,
2013-01-07 05:18:00,21.0,12.1,30.24,South,180,3.0,4.8,68,0.00,,CLR,0.00,VWS V14.01,2013-01-07 11:18:00,
2013-01-07 05:21:00,21.0,12.1,30.24,South,180,3.4,3.4,68,0.00,,CLR,0.00,VWS V14.01,2013-01-07 11:21:00,
2013-01-07 05:24:00,21.3,12.4,30.24,South,180,0.0,0.0,68,0.00,,CLR,0.00,VWS V14.01,2013-01-07 11:24:00,
2013-01-07 05:26:00,21.3,12.4,30.24,SSE,158,0.0,4.4,68,0.00,,CLR,0.00,VWS V14.01,2013-01-07 11:26:00,
2013-01-07 05:31:00,21.3,12.4,30.24,South,180,0.0,0.0,68,0.00,,CLR,0.00,VWS V14.01,2013-01-07 11:31:00,
2013-01-07 05:32:00,21.3,12.4,30.24,South,180,0.0,0.0,68,0.00,,CLR,0.00,VWS V14.01,2013-01-07 11:32:00,
2013-01-07 05:34:00,21.5,12.6,30.24,SW,225,7.6,7.6,68,0.00,,CLR,0.00,VWS V14.01,2013-01-07 11:34:00,
2013-01-07 05:38:00,21.7,12.8,30.24,SSW,202,5.2,5.2,68,0.00,,CLR,0.00,VWS V14.01,2013-01-07 11:38:00,
2013-01-07 05:39:00,21.7,12.8,30.24,South,180,0.0,0.0,68,0.00,,CLR,0.00,VWS V14.01,2013-01-07 11:39:00,
2013-01-07 05:42:00,21.7,12.8,30.24,SSE,158,0.0,0.0,68,0.00,,CLR,0.00,VWS V14.01,2013-01-07 11:42:00,
2013-01-07 05:44:00,21.7,12.8,30.24,SSW,202,4.4,4.4,68,0.00,,CLR,0.00,VWS V14.01,2013-01-07 11:44:00,
2013-01-07 05:45:00,21.7,12.8,30.24,SSW,202,4.4,4.4,68,0.00,,CLR,0.00,VWS V14.01,2013-01-07 11:45:00,
2013-01-07 05:48:00,21.9,13.0,30.24,SSW,202,0.0,3.0,68,0.00,,CLR,0.00,VWS V14.01,2013-01-07 11:48:00,
2013-01-07 05:50:00,21.9,13.0,30.24,South,180,0.0,0.0,68,0.00,,CLR,0.00,VWS V14.01,2013-01-07 11:50:00,
2013-01-07 05:52:00,21.9,13.0,30.24,SW,225,4.4,4.4,68,0.00,,CLR,0.00,VWS V14.01,2013-01-07 11:52:00,
2013-01-07 05:53:00,21.9,13.0,30.24,SW,225,4.4,4.4,68,0.00,,CLR,0.00,VWS V14.01,2013-01-07 11:53:00,
2013-01-07 05:54:00,21.9,13.0,30.24,South,180,10.2,10.2,68,0.00,,CLR,0.00,VWS V14.01,2013-01-07 11:54:00,
2013-01-07 05:58:00,21.9,13.0,30.24,SSW,202,7.6,7.6,68,0.00,,CLR,0.00,VWS V14.01,2013-01-07 11:58:00,
2013-01-07 05:59:00,21.9,13.0,30.24,SSW,202,0.0,0.0,68,0.00,,CLR,0.00,VWS V14.01,2013-01-07 11:59:00,
2013-01-07 06:00:00,21.9,12.6,30.24,SSW,202,1.6,1.6,67,0.00,,CLR,0.00,VWS V14.01,2013-01-07 12:00:00,
2013-01-07 06:02:00,21.9,12.6,30.24,South,180,7.6,7.6,67,0.00,,CLR,0.00,VWS V14.01,2013-01-07 12:02:00,
2013-01-07 06:06:00,21.9,12.6,30.24,South,180,7.0,7.0,67,0.00,,CLR,0.00,VWS V14.01,2013-01-07 12:06:00,
2013-01-07 06:07:00,21.9,12.6,30.24,South,180,7.0,7.0,67,0.00,,CLR,0.00,VWS V14.01,2013-01-07 12:07:00,
2013-01-07 06:08:00,21.9,12.6,30.23,SSW,202,0.0,7.0,67,0.00,,CLR,0.00,VWS V14.01,2013-01-07 12:08:00,
2013-01-07 06:13:00,21.9,12.6,30.23,SSW,202,2.2,2.2,67,0.00,,CLR,0.00,VWS V14.01,2013-01-07 12:13:00,
2013-01-07 06:14:00,21.9,12.6,30.24,SSE,158,0.0,6.6,67,0.00,,CLR,0.00,VWS V14.01,2013-01-07 12:14:00,
2013-01-07 06:18:00,21.7,12.4,30.23,South,180,0.0,2.2,67,0.00,,CLR,0.00,VWS V14.01,2013-01-07 12:18:00,
2013-01-07 06:20:00,21.5,12.3,30.23,SSW,202,3.4,3.4,67,0.00,,CLR,0.00,VWS V14.01,2013-01-07 12:20:00,
2013-01-07 06:24:00,21.5,12.3,30.23,South,180,0.0,0.0,67,0.00,,CLR,0.00,VWS V14.01,2013-01-07 12:24:00,
2013-01-07 06:25:00,21.5,12.3,30.23,South,180,0.0,0.0,67,0.00,,CLR,0.00,VWS V14.01,2013-01-07 12:25:00,
2013-01-07 06:30:00,21.5,12.3,30.23,South,180,0.0,0.0,67,0.00,,CLR,0.00,VWS V14.01,2013-01-07 12:30:00,
2013-01-07 06:33:00,21.3,12.1,30.22,SSE,158,0.0,0.0,67,0.00,,CLR,0.00,VWS V14.01,2013-01-07 12:33:00,
2013-01-07 06:35:00,21.3,12.1,30.22,South,180,0.0,0.0,67,0.00,,CLR,0.00,VWS V14.01,2013-01-07 12:35:00,
2013-01-07 06:36:00,21.3,12.1,30.22,SSE,158,0.0,0.0,67,0.00,,CLR,0.00,VWS V14.01,2013-01-07 12:36:00,
2013-01-07 06:40:00,21.3,12.1,30.22,SSE,158,0.0,0.0,67,0.00,,CLR,0.00,VWS V14.01,2013-01-07 12:40:00,
2013-01-07 06:42:00,21.3,12.1,30.22,SSE,158,0.0,2.6,67,0.00,,CLR,0.00,VWS V14.01,2013-01-07 12:42:00,
2013-01-07 06:46:00,21.3,12.1,30.22,South,180,0.0,2.6,67,0.00,,CLR,0.00,VWS V14.01,2013-01-07 12:46:00,
2013-01-07 06:47:00,21.3,12.1,30.22,SSE,158,0.0,0.0,67,0.00,,CLR,0.00,VWS V14.01,2013-01-07 12:47:00,
2013-01-07 06:50:00,21.3,12.1,30.22,South,180,0.0,0.0,67,0.00,,CLR,0.00,VWS V14.01,2013-01-07 12:50:00,
2013-01-07 06:52:00,21.3,12.1,30.22,SSE,158,2.6,2.6,67,0.00,,CLR,0.00,VWS V14.01,2013-01-07 12:52:00,
2013-01-07 06:53:00,21.3,12.1,30.22,SSE,158,6.6,6.6,67,0.00,,CLR,0.00,VWS V14.01,2013-01-07 12:53:00,
2013-01-07 06:56:00,21.5,12.6,30.21,North,0,0.0,5.8,68,0.00,,CLR,0.00,VWS V14.01,2013-01-07 12:56:00,
2013-01-07 06:58:00,21.5,12.6,30.22,South,180,0.0,12.0,68,0.00,,CLR,0.00,VWS V14.01,2013-01-07 12:58:00,
2013-01-07 07:02:00,21.7,12.8,30.22,SSE,158,7.6,7.6,68,0.00,,CLR,0.00,VWS V14.01,2013-01-07 13:02:00,
2013-01-07 07:04:00,21.9,13.0,30.22,South,180,3.4,7.6,68,0.00,,CLR,0.00,VWS V14.01,2013-01-07 13:04:00,
2013-01-07 07:06:00,21.9,13.0,30.21,SSW,202,0.0,8.0,68,0.00,,CLR,0.00,VWS V14.01,2013-01-07 13:06:00,
2013-01-07 07:08:00,21.9,12.6,30.21,South,180,1.6,1.6,67,0.00,,CLR,0.00,VWS V14.01,2013-01-07 13:08:00,
2013-01-07 07:10:00,22.1,12.8,30.21,SSW,202,10.6,10.6,67,0.00,,CLR,0.00,VWS V14.01,2013-01-07 13:10:00,
2013-01-07 07:13:00,22.2,12.9,30.21,South,180,5.2,5.2,67,0.00,,CLR,0.00,VWS V14.01,2013-01-07 13:13:00,
2013-01-07 07:14:00,22.2,12.9,30.21,SSE,158,5.2,5.2,67,0.00,,CLR,0.00,VWS V14.01,2013-01-07 13:14:00,
2013-01-07 07:18:00,22.4,13.1,30.21,South,180,4.4,11.6,67,0.00,,CLR,0.00,VWS V14.01,2013-01-07 13:18:00,
2013-01-07 07:20:00,22.4,12.8,30.21,SSE,158,9.2,9.2,66,0.00,,CLR,0.00,VWS V14.01,2013-01-07 13:20:00,
2013-01-07 07:21:00,22.4,12.8,30.21,SW,225,0.0,0.0,66,0.00,,CLR,0.00,VWS V14.01,2013-01-07 13:21:00,
2013-01-07 07:22:00,22.4,12.8,30.21,South,180,8.8,8.8,66,0.00,,CLR,0.00,VWS V14.01,2013-01-07 13:22:00,
2013-01-07 07:24:00,22.4,12.8,30.21,SSW,202,8.0,8.0,66,0.00,,CLR,0.00,VWS V14.01,2013-01-07 13:24:00,
2013-01-07 07:28:00,22.4,12.8,30.21,SSE,158,3.4,3.4,66,0.00,,CLR,0.00,VWS V14.01,2013-01-07 13:28:00,
2013-01-07 07:29:00,22.4,12.8,30.21,South,180,0.0,0.0,66,0.00,,CLR,0.00,VWS V14.01,2013-01-07 13:29:00,
2013-01-07 07:32:00,22.2,12.6,30.21,SW,225,5.2,5.2,66,0.00,,CLR,0.00,VWS V14.01,2013-01-07 13:32:00,
2013-01-07 07:34:00,22.4,12.4,30.21,SSE,158,7.0,7.0,65,0.00,,CLR,0.00,VWS V14.01,2013-01-07 13:34:00,
2013-01-07 07:36:00,22.4,12.4,30.21,SSW,202,8.0,15.6,65,0.00,,CLR,0.00,VWS V14.01,2013-01-07 13:36:00,
2013-01-07 07:38:00,22.4,12.4,30.21,SSE,158,0.0,8.0,65,0.00,,CLR,0.00,VWS V14.01,2013-01-07 13:38:00,
2013-01-07 07:39:00,22.2,12.2,30.21,South,180,4.0,4.0,65,0.00,,CLR,0.00,VWS V14.01,2013-01-07 13:39:00,
2013-01-07 07:42:00,22.4,12.4,30.22,SSE,158,0.0,2.2,65,0.00,,CLR,0.00,VWS V14.01,2013-01-07 13:42:00,
2013-01-07 07:43:00,22.4,12.4,30.22,SSW,202,0.0,0.0,65,0.00,,CLR,0.00,VWS V14.01,2013-01-07 13:43:00,
2013-01-07 07:45:00,22.4,12.4,30.21,South,180,0.0,0.0,65,0.00,,CLR,0.00,VWS V14.01,2013-01-07 13:45:00,
2013-01-07 07:46:00,22.4,12.4,30.22,SSW,202,2.2,2.2,65,0.00,,CLR,0.00,VWS V14.01,2013-01-07 13:46:00,
2013-01-07 07:48:00,22.4,12.4,30.21,SSW,202,0.0,2.6,65,0.00,,CLR,0.00,VWS V14.01,2013-01-07 13:48:00,
2013-01-07 07:51:00,22.4,12.4,30.22,SW,225,0.0,14.2,65,0.00,,CLR,0.00,VWS V14.01,2013-01-07 13:51:00,
2013-01-07 07:52:00,22.6,12.6,30.21,SSE,158,0.0,14.2,65,0.00,,CLR,0.00,VWS V14.01,2013-01-07 13:52:00,
2013-01-07 07:56:00,22.6,12.6,30.21,SSE,158,5.2,5.2,65,0.00,,CLR,0.00,VWS V14.01,2013-01-07 13:56:00,
2013-01-07 07:57:00,22.6,12.6,30.21,South,180,6.2,6.2,65,0.00,,CLR,0.00,VWS V14.01,2013-01-07 13:57:00,
2013-01-07 07:58:00,22.6,12.6,30.21,SSW,202,9.2,9.2,65,0.00,,CLR,0.00,VWS V14.01,2013-01-07 13:58:00,
2013-01-07 08:01:00,22.6,12.6,30.21,SSE,158,10.6,10.6,65,0.00,,CLR,0.00,VWS V14.01,2013-01-07 14:01:00,
2013-01-07 08:04:00,22.8,12.8,30.21,SSW,202,7.6,7.6,65,0.00,,CLR,0.00,VWS V14.01,2013-01-07 14:04:00,
2013-01-07 08:05:00,23.0,13.0,30.21,SSE,158,0.0,0.0,65,0.00,,CLR,0.00,VWS V14.01,2013-01-07 14:05:00,
2013-01-07 08:08:00,23.1,13.1,30.21,SSW,202,4.8,6.2,65,0.00,,CLR,0.00,VWS V14.01,2013-01-07 14:08:00,
2013-01-07 08:09:00,23.1,13.1,30.21,SW,225,6.6,6.6,65,0.00,,CLR,0.00,VWS V14.01,2013-01-07 14:09:00,
2013-01-07 08:10:00,23.1,13.1,30.21,SSE,158,1.6,6.6,65,0.00,,CLR,0.00,VWS V14.01,2013-01-07 14:10:00,
2013-01-07 08:14:00,23.3,12.9,30.21,South,180,11.0,11.0,64,0.00,,CLR,0.00,VWS V14.01,2013-01-07 14:14:00,
2013-01-07 08:15:00,23.3,12.9,30.21,SSW,202,4.8,4.8,64,0.00,,CLR,0.00,VWS V14.01,2013-01-07 14:15:00,
2013-01-07 08:16:00,23.5,13.1,30.21,SSW,202,9.8,9.8,64,0.00,,CLR,0.00,VWS V14.01,2013-01-07 14:16:00,
2013-01-07 08:20:00,23.9,13.5,30.21,SSW,202,9.2,9.2,64,0.00,,CLR,0.00,VWS V14.01,2013-01-07 14:20:00,
2013-01-07 08:21:00,23.9,13.5,30.21,SSW,202,9.2,9.2,64,0.00,,CLR,0.00,VWS V14.01,2013-01-07 14:21:00,
2013-01-07 08:22:00,23.9,13.5,30.21,South,180,14.2,14.2,64,0.00,,CLR,0.00,VWS V14.01,2013-01-07 14:22:00,
2013-01-07 08:24:00,24.2,13.8,30.21,SW,225,5.2,9.8,64,0.00,,CLR,0.00,VWS V14.01,2013-01-07 14:24:00,
2013-01-07 08:26:00,24.2,13.8,30.21,SSW,202,4.8,4.8,64,0.00,,CLR,0.00,VWS V14.01,2013-01-07 14:26:00,
2013-01-07 08:27:00,24.4,13.6,30.21,SSE,158,8.4,8.4,63,0.00,,CLR,0.00,VWS V14.01,2013-01-07 14:27:00,
2013-01-07 08:29:00,24.6,13.8,30.21,SSE,158,13.4,13.4,63,0.00,,CLR,0.00,VWS V14.01,2013-01-07 14:29:00,
2013-01-07 08:32:00,24.9,14.1,30.20,South,180,8.8,8.8,63,0.00,,CLR,0.00,VWS V14.01,2013-01-07 14:32:00,
2013-01-07 08:33:00,24.9,14.1,30.21,SSE,158,0.0,0.0,63,0.00,,CLR,0.00,VWS V14.01,2013-01-07 14:33:00,
2013-01-07 08:36:00,25.1,13.9,30.21,SSE,158,9.8,9.8,62,0.00,,CLR,0.00,VWS V14.01,2013-01-07 14:36:00,
2013-01-07 08:38:00,25.3,14.1,30.21,SSW,202,19.2,20.0,62,0.00,,CLR,0.00,VWS V14.01,2013-01-07 14:38:00,
2013-01-07 08:40:00,25.3,13.8,30.21,SSE,158,0.0,11.6,61,0.00,,CLR,0.00,VWS V14.01,2013-01-07 14:40:00,
2013-01-07 08:41:00,25.5,13.9,30.21,SSE,158,4.0,4.0,61,0.00,,CLR,0.00,VWS V14.01,2013-01-07 14:41:00,
2013-01-07 08:43:00,25.5,13.9,30.20,SSE,158,0.0,0.0,61,0.00,,CLR,0.00,VWS V14.01,2013-01-07 14:43:00,
2013-01-07 08:44:00,25.7,14.1,30.20,SSW,202,2.2,2.2,61,0.00,,CLR,0.00,VWS V14.01,2013-01-07 14:44:00,
2013-01-07 08:46:00,25.7,13.8,30.20,SSE,158,10.6,19.2,60,0.00,,CLR,0.00,VWS V14.01,2013-01-07 14:46:00,
2013-01-07 08:48:00,25.7,13.8,30.20,SSE,158,9.2,9.2,60,0.00,,CLR,0.00,VWS V14.01,2013-01-07 14:48:00,
2013-01-07 08:51:00,26.0,14.0,30.20,South,180,5.2,5.2,60,0.00,,CLR,0.00,VWS V14.01,2013-01-07 14:51:00,
2013-01-07 08:52:00,26.2,14.2,30.20,SSE,158,13.8,13.8,60,0.00,,CLR,0.00,VWS V14.01,2013-01-07 14:52:00,
2013-01-07 08:55:00,26.2,13.8,30.20,South,180,12.8,12.8,59,0.00,,CLR,0.00,VWS V14.01,2013-01-07 14:55:00,
2013-01-07 08:56:00,26.2,13.8,30.20,WSW,248,0.0,12.8,59,0.00,,CLR,0.00,VWS V14.01,2013-01-07 14:56:00,
2013-01-07 09:00:00,26.7,14.3,30.21,SSW,202,24.0,24.0,59,0.00,,CLR,0.00,VWS V14.01,2013-01-07 15:00:00,
2013-01-07 09:01:00,26.7,14.3,30.21,SSW,202,24.0,24.0,59,0.00,,CLR,0.00,VWS V14.01,2013-01-07 15:01:00,
2013-01-07 09:02:00,26.7,13.9,30.20,SSE,158,16.4,24.0,58,0.00,,CLR,0.00,VWS V14.01,2013-01-07 15:02:00,
2013-01-07 09:03:00,26.7,13.9,30.20,South,180,0.0,0.0,58,0.00,,CLR,0.00,VWS V14.01,2013-01-07 15:03:00,
2013-01-07 09:07:00,27.3,14.5,30.20,SSW,202,11.0,11.0,58,0.00,,CLR,0.00,VWS V14.01,2013-01-07 15:07:00,
2013-01-07 09:08:00,27.3,14.5,30.21,South,180,4.0,11.0,58,0.00,,CLR,0.00,VWS V14.01,2013-01-07 15:08:00,
2013-01-07 09:11:00,27.5,14.3,30.21,SSE,158,5.8,5.8,57,0.00,,CLR,0.00,VWS V14.01,2013-01-07 15:11:00,
2013-01-07 09:12:00,27.6,14.4,30.21,SSE,158,12.8,12.8,57,0.00,,CLR,0.00,VWS V14.01,2013-01-07 15:12:00,
2013-01-07 09:13:00,27.6,14.4,30.21,SSE,158,12.8,12.8,57,0.00,,CLR,0.00,VWS V14.01,2013-01-07 15:13:00,
2013-01-07 09:14:00,28.0,14.8,30.21,SSE,158,4.8,12.8,57,0.00,,CLR,0.00,VWS V14.01,2013-01-07 15:14:00,
2013-01-07 09:20:00,28.4,14.7,30.21,SSW,202,4.4,10.2,56,0.00,,CLR,0.00,VWS V14.01,2013-01-07 15:20:00,
2013-01-07 09:22:00,28.5,14.8,30.21,South,180,7.0,7.0,56,0.00,,CLR,0.00,VWS V14.01,2013-01-07 15:22:00,
2013-01-07 09:27:00,28.5,14.4,30.20,SSW,202,4.8,4.8,55,0.00,,CLR,0.00,VWS V14.01,2013-01-07 15:27:00,
2013-01-07 09:28:00,28.5,14.4,30.20,SSE,158,7.6,7.6,55,0.00,,CLR,0.00,VWS V14.01,2013-01-07 15:28:00,
2013-01-07 09:29:00,28.5,14.4,30.20,SW,225,6.6,6.6,55,0.00,,CLR,0.00,VWS V14.01,2013-01-07 15:29:00,
2013-01-07 09:32:00,28.7,14.6,30.20,SW,225,5.2,5.2,55,0.00,,CLR,0.00,VWS V14.01,2013-01-07 15:32:00,
2013-01-07 09:33:00,28.9,14.8,30.20,South,180,4.4,4.4,55,0.00,,CLR,0.00,VWS V14.01,2013-01-07 15:33:00,
2013-01-07 09:34:00,29.1,15.0,30.20,SW,225,13.8,13.8,55,0.00,,CLR,0.00,VWS V14.01,2013-01-07 15:34:00,
2013-01-07 09:36:00,29.1,14.5,30.20,South,180,6.6,13.8,54,0.00,,CLR,0.00,VWS V14.01,2013-01-07 15:36:00,
2013-01-07 09:38:00,29.3,14.7,30.20,SW,225,0.0,6.6,54,0.00,,CLR,0.00,VWS V14.01,2013-01-07 15:38:00,
2013-01-07 09:40:00,29.6,15.0,30.20,South,180,14.2,14.2,54,0.00,,CLR,0.00,VWS V14.01,2013-01-07 15:40:00,
2013-01-07 09:43:00,29.4,14.8,30.20,SSW,202,2.6,2.6,54,0.00,,CLR,0.00,VWS V14.01,2013-01-07 15:43:00,
2013-01-07 09:44:00,29.6,14.6,30.20,SW,225,8.0,8.0,53,0.00,,CLR,0.00,VWS V14.01,2013-01-07 15:44:00,
2013-01-07 09:46:00,29.8,14.8,30.19,South,180,1.6,14.2,53,0.00,,CLR,0.00,VWS V14.01,2013-01-07 15:46:00,
2013-01-07 09:50:00,30.3,15.7,30.19,South,180,4.0,6.2,54,0.00,,CLR,0.00,VWS V14.01,2013-01-07 15:50:00,
2013-01-07 09:51:00,30.3,15.7,30.19,SSW,202,8.8,8.8,54,0.00,,CLR,0.00,VWS V14.01,2013-01-07 15:51:00,
2013-01-07 09:52:00,30.5,15.9,30.20,SE,135,8.0,8.8,54,0.00,,CLR,0.00,VWS V14.01,2013-01-07 15:52:00,
2013-01-07 09:55:00,30.5,15.4,30.20,SW,225,9.2,9.2,53,0.00,,CLR,0.00,VWS V14.01,2013-01-07 15:55:00,
2013-01-07 09:56:00,30.5,15.0,30.20,North,0,0.0,9.2,52,0.00,,CLR,0.00,VWS V14.01,2013-01-07 15:56:00,
2013-01-07 10:00:00,30.7,15.2,30.20,SSW,202,3.0,16.0,52,0.00,,CLR,0.00,VWS V14.01,2013-01-07 16:00:00,
2013-01-07 10:01:00,30.7,15.2,30.20,SSW,202,3.0,3.0,52,0.00,,CLR,0.00,VWS V14.01,2013-01-07 16:01:00,
2013-01-07 10:05:00,30.9,15.4,30.20,South,180,3.0,3.0,52,0.00,,CLR,0.00,VWS V14.01,2013-01-07 16:05:00,
2013-01-07 10:06:00,31.1,15.5,30.20,SSE,158,8.8,8.8,52,0.00,,CLR,0.00,VWS V14.01,2013-01-07 16:06:00,
2013-01-07 10:10:00,31.6,16.0,30.20,SW,225,5.8,9.2,52,0.00,,CLR,0.00,VWS V14.01,2013-01-07 16:10:00,
2013-01-07 10:12:00,31.6,16.0,30.21,SSW,202,9.8,9.8,52,0.00,,CLR,0.00,VWS V14.01,2013-01-07 16:12:00,
2013-01-07 10:14:00,31.6,16.0,30.20,SSW,202,0.0,9.8,52,0.00,,CLR,0.00,VWS V14.01,2013-01-07 16:14:00,
2013-01-07 10:15:00,31.6,16.0,30.20,SSW,202,7.0,7.0,52,0.00,,CLR,0.00,VWS V14.01,2013-01-07 16:15:00,
2013-01-07 10:18:00,32.1,16.5,30.20,South,180,17.8,17.8,52,0.00,,CLR,0.00,VWS V14.01,2013-01-07 16:18:00,
2013-01-07 10:20:00,32.1,16.0,30.20,SSW,202,8.0,8.0,51,0.00,,CLR,0.00,VWS V14.01,2013-01-07 16:20:00,
2013-01-07 10:24:00,32.3,16.2,30.20,SSW,202,4.0,7.6,51,0.00,,CLR,0.00,VWS V14.01,2013-01-07 16:24:00,
2013-01-07 10:28:00,32.3,16.2,30.21,ESE,112,4.8,10.2,51,0.00,,CLR,0.00,VWS V14.01,2013-01-07 16:28:00,
2013-01-07 10:29:00,32.3,16.2,30.21,SSE,158,12.4,12.4,51,0.00,,CLR,0.00,VWS V14.01,2013-01-07 16:29:00,
2013-01-07 10:30:00,32.5,15.9,30.20,SSE,158,13.8,13.8,50,0.00,,CLR,0.00,VWS V14.01,2013-01-07 16:30:00,
2013-01-07 10:35:00,32.9,16.3,30.19,South,180,9.2,9.2,50,0.00,,CLR,0.00,VWS V14.01,2013-01-07 16:35:00,
2013-01-07 10:36:00,32.9,16.3,30.19,SSW,202,6.2,14.2,50,0.00,,CLR,0.00,VWS V14.01,2013-01-07 16:36:00,
2013-01-07 10:38:00,33.0,16.4,30.19,SW,225,17.0,17.0,50,0.00,,CLR,0.00,VWS V14.01,2013-01-07 16:38:00,
2013-01-07 10:40:00,33.0,16.4,30.19,SSW,202,4.8,13.8,50,0.00,,CLR,0.00,VWS V14.01,2013-01-07 16:40:00,
2013-01-07 10:44:00,33.2,16.1,30.19,SSW,202,8.4,8.4,49,0.00,,CLR,0.00,VWS V14.01,2013-01-07 16:44:00,
2013-01-07 10:46:00,33.0,15.9,30.19,South,180,3.4,14.6,49,0.00,,CLR,0.00,VWS V14.01,2013-01-07 16:46:00,
2013-01-07 10:49:00,33.2,16.6,30.18,SSE,158,0.0,0.0,50,0.00,,CLR,0.00,VWS V14.01,2013-01-07 16:49:00,
2013-01-07 10:50:00,33.2,16.1,30.18,SSW,202,5.2,5.2,49,0.00,,CLR,0.00,VWS V14.01,2013-01-07 16:50:00,
2013-01-07 10:51:00,33.2,16.1,30.19,South,180,6.6,6.6,49,0.00,,CLR,0.00,VWS V14.01,2013-01-07 16:51:00,
2013-01-07 10:54:00,33.4,16.3,30.18,SW,225,21.4,21.4,49,0.00,,CLR,0.00,VWS V14.01,2013-01-07 16:54:00,
2013-01-07 10:55:00,33.4,16.3,30.18,SW,225,21.4,21.4,49,0.00,,CLR,0.00,VWS V14.01,2013-01-07 16:55:00,
2013-01-07 10:56:00,33.4,16.3,30.18,South,180,9.8,21.4,49,0.00,,CLR,0.00,VWS V14.01,2013-01-07 16:56:00,
2013-01-07 10:58:00,33.4,16.3,30.18,SE,135,12.0,12.0,49,0.00,,CLR,0.00,VWS V14.01,2013-01-07 16:58:00,
2013-01-07 11:00:00,34.1,17.4,30.18,South,180,16.4,16.4,50,0.00,,CLR,0.00,VWS V14.01,2013-01-07 17:00:00,
2013-01-07 11:02:00,34.1,17.0,30.18,SSW,202,4.0,16.4,49,0.00,,CLR,0.00,VWS V14.01,2013-01-07 17:02:00,
2013-01-07 11:04:00,34.1,17.0,30.18,SW,225,8.4,8.4,49,0.00,,CLR,0.00,VWS V14.01,2013-01-07 17:04:00,
2013-01-07 11:05:00,34.3,16.7,30.18,SSE,158,2.2,2.2,48,0.00,,CLR,0.00,VWS V14.01,2013-01-07 17:05:00,
2013-01-07 11:08:00,34.7,17.0,30.17,South,180,12.8,12.8,48,0.00,,CLR,0.00,VWS V14.01,2013-01-07 17:08:00,
2013-01-07 11:10:00,34.7,17.0,30.17,SSW,202,4.0,12.8,48,0.00,,CLR,0.00,VWS V14.01,2013-01-07 17:10:00,
2013-01-07 11:15:00,35.0,16.8,30.17,SE,135,5.2,5.2,47,0.00,,CLR,0.00,VWS V14.01,2013-01-07 17:15:00,
2013-01-07 11:16:00,35.0,16.8,30.17,SSW,202,7.6,7.6,47,0.00,,CLR,0.00,VWS V14.01,2013-01-07 17:16:00,
2013-01-07 11:19:00,35.0,16.8,30.16,SSW,202,1.2,1.2,47,0.00,,CLR,0.00,VWS V14.01,2013-01-07 17:19:00,
2013-01-07 11:22:00,35.4,17.2,30.16,South,180,5.2,6.2,47,0.00,,CLR,0.00,VWS V14.01,2013-01-07 17:22:00,
2013-01-07 11:27:00,35.7,17.0,30.15,SSW,202,9.8,9.8,46,0.00,,CLR,0.00,VWS V14.01,2013-01-07 17:27:00,
2013-01-07 11:28:00,35.9,17.1,30.15,SW,225,15.6,15.6,46,0.00,,CLR,0.00,VWS V14.01,2013-01-07 17:28:00,
2013-01-07 11:30:00,35.9,16.6,30.15,SSE,158,4.0,4.0,45,0.00,,CLR,0.00,VWS V14.01,2013-01-07 17:30:00,
2013-01-07 11:32:00,36.1,16.8,30.15,SW,225,7.0,15.6,45,0.00,,CLR,0.00,VWS V14.01,2013-01-07 17:32:00,
2013-01-07 11:33:00,35.9,16.6,30.15,South,180,16.4,16.4,45,0.00,,CLR,0.00,VWS V14.01,2013-01-07 17:33:00,
2013-01-07 11:36:00,36.1,16.8,30.14,SSE,158,6.2,8.4,45,0.00,,CLR,0.00,VWS V14.01,2013-01-07 17:36:00,
2013-01-07 11:37:00,36.3,17.0,30.15,South,180,5.8,8.4,45,0.00,,CLR,0.00,VWS V14.01,2013-01-07 17:37:00,
2013-01-07 11:39:00,36.5,17.2,30.14,SW,225,2.2,5.8,45,0.00,,CLR,0.00,VWS V14.01,2013-01-07 17:39:00,
2013-01-07 11:42:00,36.5,17.2,30.14,SSW,202,6.2,6.2,45,0.00,,CLR,0.00,VWS V14.01,2013-01-07 17:42:00,
2013-01-07 11:43:00,36.5,17.2,30.14,East,90,15.2,15.2,45,0.00,,CLR,0.00,VWS V14.01,2013-01-07 17:43:00,
2013-01-07 11:45:00,36.6,17.3,30.13,South,180,0.0,15.2,45,0.00,,CLR,0.00,VWS V14.01,2013-01-07 17:45:00,
2013-01-07 11:47:00,37.0,17.6,30.13,SW,225,4.8,4.8,45,0.00,,CLR,0.00,VWS V14.01,2013-01-07 17:47:00,
2013-01-07 11:49:00,37.2,17.3,30.13,SW,225,7.0,8.4,44,0.00,,CLR,0.00,VWS V14.01,2013-01-07 17:49:00,
2013-01-07 11:51:00,37.4,17.5,30.13,SW,225,13.8,13.8,44,0.00,,CLR,0.00,VWS V14.01,2013-01-07 17:51:00,
2013-01-07 11:55:00,38.1,18.1,30.12,WNW,292,8.4,8.4,44,0.00,,CLR,0.00,VWS V14.01,2013-01-07 17:55:00,
2013-01-07 11:56:00,38.1,18.1,30.12,SSW,202,13.8,13.8,44,0.00,,CLR,0.00,VWS V14.01,2013-01-07 17:56:00,
2013-01-07 11:57:00,38.1,17.6,30.12,South,180,2.2,13.8,43,0.00,,CLR,0.00,VWS V14.01,2013-01-07 17:57:00,
2013-01-07 12:01:00,38.3,17.2,30.11,SSW,202,15.2,15.2,42,0.00,,CLR,0.00,VWS V14.01,2013-01-07 18:01:00,
2013-01-07 12:02:00,38.3,17.2,30.11,SSW,202,15.2,15.2,42,0.00,,CLR,0.00,VWS V14.01,2013-01-07 18:02:00,
2013-01-07 12:05:00,38.6,17.0,30.11,South,180,0.0,6.2,41,0.00,,CLR,0.00,VWS V14.01,2013-01-07 18:05:00,
2013-01-07 12:06:00,38.6,17.0,30.11,South,180,0.0,0.0,41,0.00,,CLR,0.00,VWS V14.01,2013-01-07 18:06:00,
2013-01-07 12:07:00,38.6,17.0,30.12,SSW,202,15.6,15.6,41,0.00,,CLR,0.00,VWS V14.01,2013-01-07 18:07:00,
2013-01-07 12:09:00,38.6,17.0,30.11,SSW,202,0.0,11.6,41,0.00,,CLR,0.00,VWS V14.01,2013-01-07 18:09:00,
2013-01-07 12:11:00,38.8,17.1,30.11,SSW,202,15.2,15.2,41,0.00,,CLR,0.00,VWS V14.01,2013-01-07 18:11:00,
2013-01-07 12:12:00,38.8,17.1,30.11,South,180,4.8,4.8,41,0.00,,CLR,0.00,VWS V14.01,2013-01-07 18:12:00,
2013-01-07 12:14:00,39.0,17.3,30.12,SSW,202,4.0,4.0,41,0.00,,CLR,0.00,VWS V14.01,2013-01-07 18:14:00,
2013-01-07 12:17:00,39.3,17.6,30.12,WSW,248,0.8,12.4,41,0.00,,CLR,0.00,VWS V14.01,2013-01-07 18:17:00,
2013-01-07 12:18:00,39.3,17.0,30.12,South,180,4.8,4.8,40,0.00,,CLR,0.00,VWS V14.01,2013-01-07 18:18:00,
2013-01-07 12:19:00,39.3,17.0,30.12,South,180,10.6,15.6,40,0.00,,CLR,0.00,VWS V14.01,2013-01-07 18:19:00,
2013-01-07 12:23:00,39.3,17.0,30.12,SSE,158,4.0,12.0,40,0.00,,CLR,0.00,VWS V14.01,2013-01-07 18:23:00,
2013-01-07 12:25:00,39.3,17.0,30.12,SSW,202,14.2,14.2,40,0.00,,CLR,0.00,VWS V14.01,2013-01-07 18:25:00,
2013-01-07 12:29:00,39.5,17.2,30.12,WSW,248,0.0,6.6,40,0.00,,CLR,0.00,VWS V14.01,2013-01-07 18:29:00,
2013-01-07 12:31:00,39.7,17.4,30.12,SW,225,4.8,8.0,40,0.00,,CLR,0.00,VWS V14.01,2013-01-07 18:31:00,
2013-01-07 12:32:00,39.9,17.5,30.12,SSW,202,5.2,5.2,40,0.00,,CLR,0.00,VWS V14.01,2013-01-07 18:32:00,
2013-01-07 12:34:00,39.9,17.5,30.11,WSW,248,2.2,2.2,40,0.00,,CLR,0.00,VWS V14.01,2013-01-07 18:34:00,
2013-01-07 12:37:00,39.9,17.5,30.11,SSW,202,12.0,12.0,40,0.00,,CLR,0.00,VWS V14.01,2013-01-07 18:37:00,
2013-01-07 12:42:00,40.4,18.0,30.10,SW,225,3.4,3.4,40,0.00,,CLR,0.00,VWS V14.01,2013-01-07 18:42:00,
2013-01-07 12:43:00,40.6,18.2,30.10,SW,225,3.0,3.4,40,0.00,,CLR,0.00,VWS V14.01,2013-01-07 18:43:00,
2013-01-07 12:45:00,40.6,18.2,30.10,SSW,202,5.8,8.8,40,0.00,,CLR,0.00,VWS V14.01,2013-01-07 18:45:00,
2013-01-07 12:47:00,40.8,17.8,30.10,South,180,12.4,12.4,39,0.00,,CLR,0.00,VWS V14.01,2013-01-07 18:47:00,
2013-01-07 12:50:00,40.8,17.2,30.09,SW,225,8.4,8.4,38,0.00,,CLR,0.00,VWS V14.01,2013-01-07 18:50:00,
2013-01-07 12:53:00,41.1,18.0,30.09,WSW,248,7.0,7.0,39,0.00,,CLR,0.00,VWS V14.01,2013-01-07 18:53:00,
2013-01-07 12:54:00,41.1,17.4,30.09,South,180,0.0,7.0,38,0.00,,CLR,0.00,VWS V14.01,2013-01-07 18:54:00,
2013-01-07 12:57:00,41.1,17.4,30.09,South,180,0.0,13.8,38,0.00,,CLR,0.00,VWS V14.01,2013-01-07 18:57:00,
2013-01-07 13:00:00,41.1,17.4,30.09,SE,135,7.0,7.0,38,0.00,,CLR,0.00,VWS V14.01,2013-01-07 19:00:00,
2013-01-07 13:01:00,41.1,16.8,30.09,SE,135,9.2,9.2,37,0.00,,CLR,0.00,VWS V14.01,2013-01-07 19:01:00,
2013-01-07 13:03:00,41.3,18.2,30.10,SW,225,0.0,13.8,39,0.00,,CLR,0.00,VWS V14.01,2013-01-07 19:03:00,
2013-01-07 13:05:00,41.3,17.6,30.10,SSW,202,0.0,0.0,38,0.00,,CLR,0.00,VWS V14.01,2013-01-07 19:05:00,
2013-01-07 13:06:00,41.5,17.8,30.10,SSW,202,5.2,5.2,38,0.00,,CLR,0.00,VWS V14.01,2013-01-07 19:06:00,
2013-01-07 13:07:00,41.5,17.8,30.09,SSE,158,7.6,7.6,38,0.00,,CLR,0.00,VWS V14.01,2013-01-07 19:07:00,
2013-01-07 13:11:00,41.7,18.0,30.10,SSE,158,14.6,14.6,38,0.00,,CLR,0.00,VWS V14.01,2013-01-07 19:11:00,
2013-01-07 13:12:00,41.7,18.0,30.10,SSE,158,14.6,14.6,38,0.00,,CLR,0.00,VWS V14.01,2013-01-07 19:12:00,
2013-01-07 13:13:00,41.7,17.4,30.10,SW,225,0.0,14.6,37,0.00,,CLR,0.00,VWS V14.01,2013-01-07 19:13:00,
2013-01-07 13:14:00,41.7,17.4,30.10,SW,225,0.0,0.0,37,0.00,,CLR,0.00,VWS V14.01,2013-01-07 19:14:00,
2013-01-07 13:17:00,42.2,17.8,30.09,SW,225,1.6,3.4,37,0.00,,CLR,0.00,VWS V14.01,2013-01-07 19:17:00,
2013-01-07 13:19:00,42.2,17.8,30.09,South,180,17.4,17.4,37,0.00,,CLR,0.00,VWS V14.01,2013-01-07 19:19:00,
2013-01-07 13:20:00,42.2,17.8,30.09,SW,225,0.0,0.0,37,0.00,,CLR,0.00,VWS V14.01,2013-01-07 19:20:00,
2013-01-07 13:24:00,42.4,17.4,30.09,SSW,202,4.4,4.4,36,0.00,,CLR,0.00,VWS V14.01,2013-01-07 19:24:00,
2013-01-07 13:25:00,42.4,17.4,30.09,SSW,202,0.0,4.4,36,0.00,,CLR,0.00,VWS V14.01,2013-01-07 19:25:00,
2013-01-07 13:26:00,42.4,17.4,30.09,SSW,202,0.0,0.0,36,0.00,,CLR,0.00,VWS V14.01,2013-01-07 19:26:00,
2013-01-07 13:27:00,42.4,16.7,30.09,SE,135,3.0,3.0,35,0.00,,CLR,0.00,VWS V14.01,2013-01-07 19:27:00,
2013-01-07 13:31:00,42.2,16.5,30.09,SSE,158,22.2,22.2,35,0.00,,CLR,0.00,VWS V14.01,2013-01-07 19:31:00,
2013-01-07 13:32:00,41.9,16.3,30.09,SE,135,3.0,3.0,35,0.00,,CLR,0.00,VWS V14.01,2013-01-07 19:32:00,
2013-01-07 13:35:00,41.9,16.3,30.09,SSW,202,6.6,8.0,35,0.00,,CLR,0.00,VWS V14.01,2013-01-07 19:35:00,
2013-01-07 13:37:00,41.7,16.1,30.09,SW,225,0.0,6.6,35,0.00,,CLR,0.00,VWS V14.01,2013-01-07 19:37:00,
2013-01-07 13:39:00,41.9,16.9,30.09,SSW,202,12.8,12.8,36,0.00,,CLR,0.00,VWS V14.01,2013-01-07 19:39:00,
2013-01-07 13:40:00,41.9,16.9,30.09,SSW,202,12.8,12.8,36,0.00,,CLR,0.00,VWS V14.01,2013-01-07 19:40:00,
2013-01-07 13:42:00,41.9,16.3,30.09,South,180,0.0,0.0,35,0.00,,CLR,0.00,VWS V14.01,2013-01-07 19:42:00,
2013-01-07 13:47:00,41.7,16.1,30.09,SSW,202,10.6,10.6,35,0.00,,CLR,0.00,VWS V14.01,2013-01-07 19:47:00,
2013-01-07 13:52:00,41.3,16.4,30.09,South,180,10.2,10.2,36,0.00,,CLR,0.00,VWS V14.01,2013-01-07 19:52:00,
2013-01-07 13:53:00,41.5,17.2,30.09,SSW,202,0.0,10.6,37,0.00,,CLR,0.00,VWS V14.01,2013-01-07 19:53:00,
2013-01-07 13:55:00,41.7,17.4,30.09,South,180,4.8,4.8,37,0.00,,CLR,0.00,VWS V14.01,2013-01-07 19:55:00,
2013-01-07 13:57:00,41.9,17.5,30.09,South,180,15.2,15.2,37,0.00,,CLR,0.00,VWS V14.01,2013-01-07 19:57:00,
2013-01-07 13:59:00,41.7,17.4,30.08,SSW,202,9.8,11.6,37,0.00,,CLR,0.00,VWS V14.01,2013-01-07 19:59:00,
2013-01-07 14:01:00,41.5,17.2,30.08,SSW,202,10.6,10.6,37,0.00,,CLR,0.00,VWS V14.01,2013-01-07 20:01:00,
2013-01-07 14:03:00,41.3,17.0,30.08,SSE,158,0.0,4.8,37,0.00,,CLR,0.00,VWS V14.01,2013-01-07 20:03:00,
2013-01-07 14:05:00,41.5,17.8,30.08,South,180,0.4,0.4,38,0.00,,CLR,0.00,VWS V14.01,2013-01-07 20:05:00,
2013-01-07 14:07:00,41.7,18.0,30.08,SE,135,0.0,0.4,38,0.00,,CLR,0.00,VWS V14.01,2013-01-07 20:07:00,
2013-01-07 14:09:00,41.5,17.8,30.08,SW,225,5.8,6.2,38,0.00,,CLR,0.00,VWS V14.01,2013-01-07 20:09:00,
2013-01-07 14:11:00,41.3,17.6,30.08,SSW,202,11.0,11.0,38,0.00,,CLR,0.00,VWS V14.01,2013-01-07 20:11:00,
2013-01-07 14:13:00,41.3,17.6,30.08,SW,225,7.6,11.0,38,0.00,,CLR,0.00,VWS V14.01,2013-01-07 20:13:00,
2013-01-07 14:15:00,41.1,18.0,30.07,SSW,202,5.8,9.2,39,0.00,,CLR,0.00,VWS V14.01,2013-01-07 20:15:00,
2013-01-07 14:19:00,41.0,18.0,30.08,South,180,3.4,3.4,39,0.00,,CLR,0.00,VWS V14.01,2013-01-07 20:19:00,
2013-01-07 14:22:00,40.6,17.6,30.08,South,180,9.2,9.2,39,0.00,,CLR,0.00,VWS V14.01,2013-01-07 20:22:00,
2013-01-07 14:24:00,40.6,18.2,30.08,SSW,202,8.4,8.4,40,0.00,,CLR,0.00,VWS V14.01,2013-01-07 20:24:00,
2013-01-07 14:25:00,40.6,18.2,30.08,South,180,0.0,8.4,40,0.00,,CLR,0.00,VWS V14.01,2013-01-07 20:25:00,
2013-01-07 14:27:00,40.6,18.2,30.08,SW,225,8.0,8.0,40,0.00,,CLR,0.00,VWS V14.01,2013-01-07 20:27:00,
2013-01-07 14:29:00,40.4,18.0,30.07,SSE,158,4.0,8.0,40,0.00,,CLR,0.00,VWS V14.01,2013-01-07 20:29:00,
2013-01-07 14:30:00,40.4,18.0,30.07,SSW,202,15.6,15.6,40,0.00,,CLR,0.00,VWS V14.01,2013-01-07 20:30:00,
2013-01-07 14:31:00,40.4,18.0,30.08,South,180,15.6,15.6,40,0.00,,CLR,0.00,VWS V14.01,2013-01-07 20:31:00,
2013-01-07 14:33:00,40.4,18.0,30.07,South,180,0.0,15.6,40,0.00,,CLR,0.00,VWS V14.01,2013-01-07 20:33:00,
2013-01-07 14:34:00,40.4,18.0,30.07,SSW,202,20.0,20.0,40,0.00,,CLR,0.00,VWS V14.01,2013-01-07 20:34:00,
2013-01-07 14:37:00,40.2,17.8,30.07,SSE,158,7.6,10.2,40,0.00,,CLR,0.00,VWS V14.01,2013-01-07 20:37:00,
2013-01-07 14:38:00,40.2,17.8,30.07,SSE,158,7.6,7.6,40,0.00,,CLR,0.00,VWS V14.01,2013-01-07 20:38:00,
2013-01-07 14:43:00,40.1,18.3,30.07,SSW,202,0.4,7.0,41,0.00,,CLR,0.00,VWS V14.01,2013-01-07 20:43:00,
2013-01-07 14:44:00,40.1,18.3,30.07,SW,225,8.8,8.8,41,0.00,,CLR,0.00,VWS V14.01,2013-01-07 20:44:00,
2013-01-07 14:45:00,39.9,18.1,30.07,SSW,202,17.8,17.8,41,0.00,,CLR,0.00,VWS V14.01,2013-01-07 20:45:00,
2013-01-07 14:46:00,39.9,18.1,30.07,SSW,202,17.8,17.8,41,0.00,,CLR,0.00,VWS V14.01,2013-01-07 20:46:00,
2013-01-07 14:49:00,39.9,18.1,30.07,SSW,202,3.4,8.0,41,0.00,,CLR,0.00,VWS V14.01,2013-01-07 20:49:00,
2013-01-07 14:51:00,40.1,18.3,30.07,SSW,202,10.2,10.2,41,0.00,,CLR,0.00,VWS V14.01,2013-01-07 20:51:00,
2013-01-07 14:53:00,40.1,18.3,30.07,SSE,158,7.6,7.6,41,0.00,,CLR,0.00,VWS V14.01,2013-01-07 20:53:00,
2013-01-07 14:54:00,40.1,18.3,30.07,SSE,158,23.6,23.6,41,0.00,,CLR,0.00,VWS V14.01,2013-01-07 20:54:00,
2013-01-07 14:56:00,40.1,18.9,30.07,South,180,5.8,5.8,42,0.00,,CLR,0.00,VWS V14.01,2013-01-07 20:56:00,
2013-01-07 14:57:00,39.9,18.7,30.06,SSE,158,4.8,5.8,42,0.00,,CLR,0.00,VWS V14.01,2013-01-07 20:57:00,
2013-01-07 14:58:00,39.9,18.7,30.06,SSE,158,4.8,4.8,42,0.00,,CLR,0.00,VWS V14.01,2013-01-07 20:58:00,
2013-01-07 15:01:00,39.9,18.7,30.07,SSW,202,15.2,15.2,42,0.00,,CLR,0.00,VWS V14.01,2013-01-07 21:01:00,
2013-01-07 15:03:00,39.9,18.7,30.07,SW,225,0.8,0.8,42,0.00,,CLR,0.00,VWS V14.01,2013-01-07 21:03:00,
2013-01-07 15:06:00,39.5,18.3,30.07,SSW,202,9.2,9.2,42,0.00,,CLR,0.00,VWS V14.01,2013-01-07 21:06:00,
2013-01-07 15:08:00,39.3,18.1,30.07,South,180,18.6,18.6,42,0.00,,CLR,0.00,VWS V14.01,2013-01-07 21:08:00,
2013-01-07 15:09:00,39.3,18.1,30.07,SSW,202,6.2,18.6,42,0.00,,CLR,0.00,VWS V14.01,2013-01-07 21:09:00,
2013-01-07 15:12:00,38.8,17.7,30.07,SSW,202,0.0,0.0,42,0.00,,CLR,0.00,VWS V14.01,2013-01-07 21:12:00,
2013-01-07 15:13:00,39.0,18.4,30.07,SSW,202,4.8,4.8,43,0.00,,CLR,0.00,VWS V14.01,2013-01-07 21:13:00,
2013-01-07 15:15:00,38.8,18.2,30.07,SSE,158,7.6,7.6,43,0.00,,CLR,0.00,VWS V14.01,2013-01-07 21:15:00,
2013-01-07 15:18:00,38.6,18.0,30.06,SW,225,12.8,12.8,43,0.00,,CLR,0.00,VWS V14.01,2013-01-07 21:18:00,
2013-01-07 15:19:00,38.6,18.0,30.06,SSE,158,0.0,12.8,43,0.00,,CLR,0.00,VWS V14.01,2013-01-07 21:19:00,
2013-01-07 15:20:00,38.6,18.0,30.06,SSE,158,0.0,0.0,43,0.00,,CLR,0.00,VWS V14.01,2013-01-07 21:20:00,
2013-01-07 15:21:00,38.6,18.6,30.06,SSW,202,12.8,12.8,44,0.00,,CLR,0.00,VWS V14.01,2013-01-07 21:21:00,
2013-01-07 15:25:00,38.4,18.4,30.07,South,180,9.2,9.2,44,0.00,,CLR,0.00,VWS V14.01,2013-01-07 21:25:00,
2013-01-07 15:26:00,38.4,18.4,30.07,SSE,158,4.8,4.8,44,0.00,,CLR,0.00,VWS V14.01,2013-01-07 21:26:00,
2013-01-07 15:28:00,38.6,19.1,30.07,SSW,202,12.8,12.8,45,0.00,,CLR,0.00,VWS V14.01,2013-01-07 21:28:00,
2013-01-07 15:31:00,38.3,18.8,30.06,South,180,0.0,0.0,45,0.00,,CLR,0.00,VWS V14.01,2013-01-07 21:31:00,
2013-01-07 15:33:00,38.3,18.8,30.06,SW,225,19.2,20.4,45,0.00,,CLR,0.00,VWS V14.01,2013-01-07 21:33:00,
2013-01-07 15:34:00,38.3,18.8,30.06,SW,225,19.2,19.2,45,0.00,,CLR,0.00,VWS V14.01,2013-01-07 21:34:00,
2013-01-07 15:37:00,38.3,18.8,30.06,SSE,158,12.4,17.4,45,0.00,,CLR,0.00,VWS V14.01,2013-01-07 21:37:00,
2013-01-07 15:39:00,38.3,18.8,30.06,SSE,158,0.0,19.2,45,0.00,,CLR,0.00,VWS V14.01,2013-01-07 21:39:00,
2013-01-07 15:42:00,38.1,18.6,30.06,South,180,10.6,10.6,45,0.00,,CLR,0.00,VWS V14.01,2013-01-07 21:42:00,
2013-01-07 15:44:00,38.1,18.6,30.06,SSW,202,8.8,8.8,45,0.00,,CLR,0.00,VWS V14.01,2013-01-07 21:44:00,
2013-01-07 15:45:00,38.3,19.4,30.06,SSW,202,3.0,8.8,46,0.00,,CLR,0.00,VWS V14.01,2013-01-07 21:45:00,
2013-01-07 15:47:00,38.1,19.2,30.06,SSE,158,5.8,5.8,46,0.00,,CLR,0.00,VWS V14.01,2013-01-07 21:47:00,
2013-01-07 15:51:00,38.1,19.2,30.06,South,180,8.0,8.0,46,0.00,,CLR,0.00,VWS V14.01,2013-01-07 21:51:00,
2013-01-07 15:53:00,38.1,19.2,30.06,SW,225,0.0,12.0,46,0.00,,CLR,0.00,VWS V14.01,2013-01-07 21:53:00,
2013-01-07 15:58:00,38.1,19.2,30.06,SSE,158,3.4,3.4,46,0.00,,CLR,0.00,VWS V14.01,2013-01-07 21:58:00,
2013-01-07 15:59:00,37.9,19.0,30.06,South,180,8.4,8.4,46,0.00,,CLR,0.00,VWS V14.01,2013-01-07 21:59:00,
2013-01-07 16:00:00,37.9,19.0,30.06,South,180,8.4,8.4,46,0.00,,CLR,0.00,VWS V14.01,2013-01-07 22:00:00,
2013-01-07 16:03:00,37.7,19.3,30.06,SSW,202,4.4,6.6,47,0.00,,CLR,0.00,VWS V14.01,2013-01-07 22:03:00,
2013-01-07 16:04:00,37.7,19.3,30.06,SSW,202,4.4,4.4,47,0.00,,CLR,0.00,VWS V14.01,2013-01-07 22:04:00,
2013-01-07 16:05:00,37.7,19.3,30.05,SSE,158,0.0,4.8,47,0.00,,CLR,0.00,VWS V14.01,2013-01-07 22:05:00,
2013-01-07 16:09:00,37.7,19.3,30.05,South,180,9.2,9.2,47,0.00,,CLR,0.00,VWS V14.01,2013-01-07 22:09:00,
2013-01-07 16:11:00,37.7,19.3,30.05,South,180,12.0,12.0,47,0.00,,CLR,0.00,VWS V14.01,2013-01-07 22:11:00,
2013-01-07 16:13:00,37.7,19.3,30.05,South,180,5.8,5.8,47,0.00,,CLR,0.00,VWS V14.01,2013-01-07 22:13:00,
2013-01-07 16:15:00,37.5,19.1,30.05,SSW,202,4.8,10.6,47,0.00,,CLR,0.00,VWS V14.01,2013-01-07 22:15:00,
2013-01-07 16:17:00,37.5,19.6,30.06,SSE,158,10.6,13.8,48,0.00,,CLR,0.00,VWS V14.01,2013-01-07 22:17:00,
2013-01-07 16:18:00,37.5,19.6,30.06,SSE,158,10.6,10.6,48,0.00,,CLR,0.00,VWS V14.01,2013-01-07 22:18:00,
2013-01-07 16:19:00,37.5,19.6,30.06,SSW,202,4.0,10.6,48,0.00,,CLR,0.00,VWS V14.01,2013-01-07 22:19:00,
2013-01-07 16:21:00,37.5,19.6,30.06,South,180,6.2,6.2,48,0.00,,CLR,0.00,VWS V14.01,2013-01-07 22:21:00,
2013-01-07 16:24:00,37.4,19.5,30.06,South,180,0.0,0.0,48,0.00,,CLR,0.00,VWS V14.01,2013-01-07 22:24:00,
2013-01-07 16:26:00,37.4,20.0,30.06,SSE,158,0.0,0.0,49,0.00,,CLR,0.00,VWS V14.01,2013-01-07 22:26:00,
2013-01-07 16:27:00,37.4,20.0,30.06,SSE,158,3.0,3.0,49,0.00,,CLR,0.00,VWS V14.01,2013-01-07 22:27:00,
2013-01-07 16:28:00,37.2,19.8,30.06,South,180,0.0,0.0,49,0.00,,CLR,0.00,VWS V14.01,2013-01-07 22:28:00,
2013-01-07 16:31:00,37.0,19.6,30.06,SSE,158,4.0,4.0,49,0.00,,CLR,0.00,VWS V14.01,2013-01-07 22:31:00,
2013-01-07 16:33:00,37.0,19.6,30.06,South,180,0.0,4.0,49,0.00,,CLR,0.00,VWS V14.01,2013-01-07 22:33:00,
2013-01-07 16:35:00,37.0,20.1,30.06,SSE,158,0.0,10.2,50,0.00,,CLR,0.00,VWS V14.01,2013-01-07 22:35:00,
2013-01-07 16:39:00,37.0,20.1,30.07,SSW,202,6.2,6.2,50,0.00,,CLR,0.00,VWS V14.01,2013-01-07 22:39:00,
2013-01-07 16:41:00,37.0,20.1,30.07,SSW,202,0.0,0.0,50,0.00,,CLR,0.00,VWS V14.01,2013-01-07 22:41:00,
2013-01-07 16:43:00,36.8,19.9,30.06,South,180,0.0,4.4,50,0.00,,CLR,0.00,VWS V14.01,2013-01-07 22:43:00,
2013-01-07 16:44:00,36.8,19.9,30.06,SSE,158,8.0,8.0,50,0.00,,CLR,0.00,VWS V14.01,2013-01-07 22:44:00,
2013-01-07 16:46:00,36.8,19.9,30.07,SW,225,0.0,0.0,50,0.00,,CLR,0.00,VWS V14.01,2013-01-07 22:46:00,
2013-01-07 16:49:00,36.5,19.6,30.07,SSW,202,8.0,8.0,50,0.00,,CLR,0.00,VWS V14.01,2013-01-07 22:49:00,
2013-01-07 16:51:00,36.5,20.1,30.07,SW,225,0.0,6.2,51,0.00,,CLR,0.00,VWS V14.01,2013-01-07 22:51:00,
2013-01-07 16:54:00,36.6,20.2,30.07,SSW,202,6.2,6.2,51,0.00,,CLR,0.00,VWS V14.01,2013-01-07 22:54:00,
2013-01-07 16:57:00,36.5,20.1,30.07,SSW,202,0.0,0.0,51,0.00,,CLR,0.00,VWS V14.01,2013-01-07 22:57:00,
2013-01-07 16:59:00,36.5,20.1,30.07,SW,225,0.0,4.8,51,0.00,,CLR,0.00,VWS V14.01,2013-01-07 22:59:00,
2013-01-07 17:00:00,36.5,20.1,30.07,SW,225,0.0,0.0,51,0.00,,CLR,0.00,VWS V14.01,2013-01-07 23:00:00,
2013-01-07 17:04:00,36.3,20.4,30.07,SW,225,0.0,0.0,52,0.00,,CLR,0.00,VWS V14.01,2013-01-07 23:04:00,
2013-01-07 17:05:00,36.1,20.2,30.08,SW,225,4.4,4.4,52,0.00,,CLR,0.00,VWS V14.01,2013-01-07 23:05:00,
2013-01-07 17:07:00,36.1,20.2,30.08,SSW,202,6.2,8.0,52,0.00,,CLR,0.00,VWS V14.01,2013-01-07 23:07:00,
2013-01-07 17:09:00,36.1,20.2,30.08,SSW,202,0.0,6.2,52,0.00,,CLR,0.00,VWS V14.01,2013-01-07 23:09:00,
2013-01-07 17:11:00,35.9,20.5,30.08,SW,225,3.4,3.4,53,0.00,,CLR,0.00,VWS V14.01,2013-01-07 23:11:00,
2013-01-07 17:12:00,36.1,20.6,30.08,South,180,2.2,3.4,53,0.00,,CLR,0.00,VWS V14.01,2013-01-07 23:12:00,
2013-01-07 17:14:00,36.1,20.6,30.08,SW,225,6.6,12.4,53,0.00,,CLR,0.00,VWS V14.01,2013-01-07 23:14:00,
2013-01-07 17:17:00,35.9,20.5,30.08,SW,225,10.2,10.2,53,0.00,,CLR,0.00,VWS V14.01,2013-01-07 23:17:00,
2013-01-07 17:18:00,35.9,20.5,30.08,South,180,0.0,10.2,53,0.00,,CLR,0.00,VWS V14.01,2013-01-07 23:18:00,
2013-01-07 17:19:00,35.9,20.5,30.08,SSW,202,7.0,10.2,53,0.00,,CLR,0.00,VWS V14.01,2013-01-07 23:19:00,
2013-01-07 17:22:00,35.9,20.9,30.08,South,180,0.0,0.0,54,0.00,,CLR,0.00,VWS V14.01,2013-01-07 23:22:00,
2013-01-07 17:23:00,35.9,20.9,30.08,South,180,0.0,0.0,54,0.00,,CLR,0.00,VWS V14.01,2013-01-07 23:23:00,
2013-01-07 17:25:00,35.7,20.7,30.08,SSE,158,0.0,0.0,54,0.00,,CLR,0.00,VWS V14.01,2013-01-07 23:25:00,
2013-01-07 17:26:00,35.7,20.7,30.08,South,180,8.8,8.8,54,0.00,,CLR,0.00,VWS V14.01,2013-01-07 23:26:00,
2013-01-07 17:31:00,35.7,20.7,30.08,South,180,0.0,1.6,54,0.00,,CLR,0.00,VWS V14.01,2013-01-07 23:31:00,
2013-01-07 17:32:00,35.6,20.6,30.08,SSW,202,0.0,0.0,54,0.00,,CLR,0.00,VWS V14.01,2013-01-07 23:32:00,
2013-01-07 17:35:00,35.6,20.6,30.08,SSE,158,0.0,9.8,54,0.00,,CLR,0.00,VWS V14.01,2013-01-07 23:35:00,
2013-01-07 17:37:00,35.6,21.0,30.08,South,180,0.0,0.0,55,0.00,,CLR,0.00,VWS V14.01,2013-01-07 23:37:00,
2013-01-07 17:39:00,35.6,21.0,30.08,SSE,158,0.0,7.0,55,0.00,,CLR,0.00,VWS V14.01,2013-01-07 23:39:00,
2013-01-07 17:40:00,35.4,20.9,30.08,South,180,0.0,0.0,55,0.00,,CLR,0.00,VWS V14.01,2013-01-07 23:40:00,
2013-01-07 17:42:00,35.2,20.7,30.08,SSW,202,5.2,5.2,55,0.00,,CLR,0.00,VWS V14.01,2013-01-07 23:42:00,
2013-01-07 17:45:00,35.2,20.7,30.07,South,180,0.0,0.0,55,0.00,,CLR,0.00,VWS V14.01,2013-01-07 23:45:00,
2013-01-07 17:46:00,35.2,20.7,30.08,South,180,0.0,0.0,55,0.00,,CLR,0.00,VWS V14.01,2013-01-07 23:46:00,
2013-01-07 17:47:00,35.2,20.7,30.08,South,180,0.0,0.0,55,0.00,,CLR,0.00,VWS V14.01,2013-01-07 23:47:00,
2013-01-07 17:50:00,35.2,20.7,30.07,SSW,202,0.0,0.0,55,0.00,,CLR,0.00,VWS V14.01,2013-01-07 23:50:00,
2013-01-07 17:51:00,35.2,21.1,30.07,SSE,158,0.0,0.0,56,0.00,,CLR,0.00,VWS V14.01,2013-01-07 23:51:00,
2013-01-07 17:53:00,35.0,20.9,30.07,SSE,158,0.0,0.0,56,0.00,,CLR,0.00,VWS V14.01,2013-01-07 23:53:00,
2013-01-07 17:55:00,35.0,20.9,30.07,SSE,158,0.0,0.0,56,0.00,,CLR,0.00,VWS V14.01,2013-01-07 23:55:00,
2013-01-07 17:56:00,35.0,20.9,30.07,South,180,0.0,0.0,56,0.00,,CLR,0.00,VWS V14.01,2013-01-07 23:56:00,
2013-01-07 17:59:00,35.0,20.9,30.07,SSW,202,0.0,0.0,56,0.00,,CLR,0.00,VWS V14.01,2013-01-07 23:59:00,
2013-01-07 18:01:00,35.0,20.9,30.07,South,180,10.6,10.6,56,0.00,,CLR,0.00,VWS V14.01,2013-01-08 00:01:00,
2013-01-07 18:05:00,35.0,20.9,30.07,SSE,158,0.0,0.0,56,0.00,,CLR,0.00,VWS V14.01,2013-01-08 00:05:00,
2013-01-07 18:06:00,35.0,20.9,30.07,SSW,202,6.2,6.2,56,0.00,,CLR,0.00,VWS V14.01,2013-01-08 00:06:00,
2013-01-07 18:10:00,34.8,21.1,30.07,SW,225,13.4,13.4,57,0.00,,CLR,0.00,VWS V14.01,2013-01-08 00:10:00,
2013-01-07 18:11:00,35.0,21.3,30.08,South,180,0.0,13.4,57,0.00,,CLR,0.00,VWS V14.01,2013-01-08 00:11:00,
2013-01-07 18:12:00,35.0,21.3,30.08,South,180,0.0,0.0,57,0.00,,CLR,0.00,VWS V14.01,2013-01-08 00:12:00,
2013-01-07 18:14:00,34.8,21.1,30.07,SSE,158,0.0,0.0,57,0.00,,CLR,0.00,VWS V14.01,2013-01-08 00:14:00,
2013-01-07 18:17:00,34.7,21.0,30.07,SSW,202,4.4,5.8,57,0.00,,CLR,0.00,VWS V14.01,2013-01-08 00:17:00,
2013-01-07 18:18:00,34.7,21.0,30.07,SSW,202,4.4,4.4,57,0.00,,CLR,0.00,VWS V14.01,2013-01-08 00:18:00,
2013-01-07 18:19:00,34.8,21.1,30.07,SSW,202,0.0,4.4,57,0.00,,CLR,0.00,VWS V14.01,2013-01-08 00:19:00,
2013-01-07 18:21:00,34.8,21.1,30.07,South,180,7.6,7.6,57,0.00,,CLR,0.00,VWS V14.01,2013-01-08 00:21:00,
2013-01-07 18:23:00,34.8,21.1,30.07,SW,225,6.6,9.8,57,0.00,,CLR,0.00,VWS V14.01,2013-01-08 00:23:00,
2013-01-07 18:24:00,34.8,21.1,30.07,SSW,202,4.4,4.4,57,0.00,,CLR,0.00,VWS V14.01,2013-01-08 00:24:00,
2013-01-07 18:26:00,34.8,21.1,30.07,SSW,202,3.0,3.0,57,0.00,,CLR,0.00,VWS V14.01,2013-01-08 00:26:00,
2013-01-07 18:28:00,34.7,21.5,30.07,SSE,158,0.0,0.0,58,0.00,,CLR,0.00,VWS V14.01,2013-01-08 00:28:00,
2013-01-07 18:29:00,34.7,21.5,30.07,SW,225,0.0,8.0,58,0.00,,CLR,0.00,VWS V14.01,2013-01-08 00:29:00,
2013-01-07 18:31:00,34.7,21.0,30.07,SSW,202,0.0,0.0,57,0.00,,CLR,0.00,VWS V14.01,2013-01-08 00:31:00,
2013-01-07 18:36:00,34.7,21.5,30.07,SSW,202,10.2,10.2,58,0.00,,CLR,0.00,VWS V14.01,2013-01-08 00:36:00,
2013-01-07 18:37:00,34.7,21.5,30.06,SSW,202,0.0,10.2,58,0.00,,CLR,0.00,VWS V14.01,2013-01-08 00:37:00,
2013-01-07 18:39:00,34.7,21.5,30.07,SSW,202,0.0,0.0,58,0.00,,CLR,0.00,VWS V14.01,2013-01-08 00:39:00,
2013-01-07 18:41:00,34.7,21.5,30.07,NNE,22,0.0,4.4,58,0.00,,CLR,0.00,VWS V14.01,2013-01-08 00:41:00,
2013-01-07 18:45:00,34.7,21.5,30.07,SSW,202,0.0,0.0,58,0.00,,CLR,0.00,VWS V14.01,2013-01-08 00:45:00,
2013-01-07 18:48:00,34.5,21.3,30.06,South,180,0.0,0.0,58,0.00,,CLR,0.00,VWS V14.01,2013-01-08 00:48:00,
2013-01-07 18:51:00,34.5,21.3,30.07,South,180,0.0,0.0,58,0.00,,CLR,0.00,VWS V14.01,2013-01-08 00:51:00,
2013-01-07 18:53:00,34.5,21.3,30.07,SSW,202,0.0,0.0,58,0.00,,CLR,0.00,VWS V14.01,2013-01-08 00:53:00,
2013-01-07 18:55:00,34.5,21.3,30.07,SSW,202,0.0,2.2,58,0.00,,CLR,0.00,VWS V14.01,2013-01-08 00:55:00,
2013-01-07 18:56:00,34.5,21.3,30.07,South,180,0.0,0.0,58,0.00,,CLR,0.00,VWS V14.01,2013-01-08 00:56:00,
2013-01-07 18:59:00,34.5,21.3,30.07,SSW,202,0.0,0.0,58,0.00,,CLR,0.00,VWS V14.01,2013-01-08 00:59:00,
2013-01-07 19:01:00,34.5,21.3,30.07,SSW,202,1.6,9.2,58,0.00,,CLR,0.00,VWS V14.01,2013-01-08 01:01:00,
2013-01-07 19:03:00,34.3,21.1,30.07,South,180,2.6,2.6,58,0.00,,CLR,0.00,VWS V14.01,2013-01-08 01:03:00,
2013-01-07 19:04:00,34.3,21.1,30.07,South,180,2.2,2.2,58,0.00,,CLR,0.00,VWS V14.01,2013-01-08 01:04:00,
2013-01-07 19:07:00,34.3,21.1,30.07,South,180,1.6,1.6,58,0.00,,CLR,0.00,VWS V14.01,2013-01-08 01:07:00,
2013-01-07 19:09:00,34.3,21.1,30.07,South,180,0.0,4.0,58,0.00,,CLR,0.00,VWS V14.01,2013-01-08 01:09:00,
2013-01-07 19:14:00,34.3,21.1,30.07,SSE,158,0.0,0.0,58,0.00,,CLR,0.00,VWS V14.01,2013-01-08 01:14:00,
2013-01-07 19:15:00,34.3,21.1,30.07,SSW,202,0.0,0.0,58,0.00,,CLR,0.00,VWS V14.01,2013-01-08 01:15:00,
2013-01-07 19:17:00,34.3,21.1,30.07,SSW,202,0.0,7.0,58,0.00,,CLR,0.00,VWS V14.01,2013-01-08 01:17:00,
2013-01-07 19:20:00,34.3,21.5,30.07,South,180,4.4,4.4,59,0.00,,CLR,0.00,VWS V14.01,2013-01-08 01:20:00,
2013-01-07 19:22:00,34.3,21.5,30.07,SSW,202,0.0,0.0,59,0.00,,CLR,0.00,VWS V14.01,2013-01-08 01:22:00,
2013-01-07 19:23:00,34.3,21.5,30.07,South,180,0.0,4.8,59,0.00,,CLR,0.00,VWS V14.01,2013-01-08 01:23:00,
2013-01-07 19:25:00,34.3,21.5,30.07,SSW,202,0.0,0.0,59,0.00,,CLR,0.00,VWS V14.01,2013-01-08 01:25:00,
2013-01-07 19:30:00,34.3,21.5,30.07,SSW,202,0.0,0.0,59,0.00,,CLR,0.00,VWS V14.01,2013-01-08 01:30:00,
2013-01-07 19:31:00,34.3,21.5,30.07,SSW,202,0.0,0.0,59,0.00,,CLR,0.00,VWS V14.01,2013-01-08 01:31:00,
2013-01-07 19:32:00,34.5,21.7,30.07,South,180,0.0,0.0,59,0.00,,CLR,0.00,VWS V14.01,2013-01-08 01:32:00,
2013-01-07 19:35:00,34.3,21.5,30.07,South,180,0.0,0.0,59,0.00,,CLR,0.00,VWS V14.01,2013-01-08 01:35:00,
2013-01-07 19:37:00,34.3,21.5,30.07,South,180,0.0,0.0,59,0.00,,CLR,0.00,VWS V14.01,2013-01-08 01:37:00,
2013-01-07 19:39:00,34.3,21.5,30.06,South,180,4.0,4.0,59,0.00,,CLR,0.00,VWS V14.01,2013-01-08 01:39:00,
2013-01-07 19:40:00,34.3,21.5,30.06,South,180,4.0,4.0,59,0.00,,CLR,0.00,VWS V14.01,2013-01-08 01:40:00,
2013-01-07 19:42:00,34.3,21.5,30.06,SSW,202,0.0,0.0,59,0.00,,CLR,0.00,VWS V14.01,2013-01-08 01:42:00,
2013-01-07 19:45:00,34.3,21.5,30.06,SSW,202,0.0,0.0,59,0.00,,CLR,0.00,VWS V14.01,2013-01-08 01:45:00,
2013-01-07 19:47:00,34.3,21.5,30.06,South,180,2.2,2.2,59,0.00,,CLR,0.00,VWS V14.01,2013-01-08 01:47:00,
2013-01-07 19:48:00,34.3,21.5,30.06,South,180,0.0,2.2,59,0.00,,CLR,0.00,VWS V14.01,2013-01-08 01:48:00,
2013-01-07 19:49:00,34.3,21.5,30.06,South,180,3.4,3.4,59,0.00,,CLR,0.00,VWS V14.01,2013-01-08 01:49:00,
2013-01-07 19:51:00,34.3,21.5,30.07,SW,225,4.8,4.8,59,0.00,,CLR,0.00,VWS V14.01,2013-01-08 01:51:00,
2013-01-07 19:53:00,34.3,21.5,30.07,SSW,202,0.0,4.8,59,0.00,,CLR,0.00,VWS V14.01,2013-01-08 01:53:00,
2013-01-07 19:55:00,34.1,21.3,30.06,SSW,202,0.0,0.0,59,0.00,,CLR,0.00,VWS V14.01,2013-01-08 01:55:00,
2013-01-07 19:59:00,34.1,21.3,30.06,South,180,2.6,2.6,59,0.00,,CLR,0.00,VWS V14.01,2013-01-08 01:59:00,
2013-01-07 20:01:00,34.1,21.3,30.06,South,180,0.0,2.6,59,0.00,,CLR,0.00,VWS V14.01,2013-01-08 02:01:00,
2013-01-07 20:04:00,33.9,21.1,30.06,SSW,202,0.0,0.0,59,0.00,,CLR,0.00,VWS V14.01,2013-01-08 02:04:00,
2013-01-07 20:07:00,33.9,21.1,30.07,SSE,158,0.0,0.0,59,0.00,,CLR,0.00,VWS V14.01,2013-01-08 02:07:00,
2013-01-07 20:11:00,33.9,21.5,30.07,South,180,0.0,0.0,60,0.00,,CLR,0.00,VWS V14.01,2013-01-08 02:11:00,
2013-01-07 20:15:00,33.8,21.4,30.07,South,180,0.0,0.0,60,0.00,,CLR,0.00,VWS V14.01,2013-01-08 02:15:00,
2013-01-07 20:16:00,33.8,21.4,30.07,South,180,0.0,0.0,60,0.00,,CLR,0.00,VWS V14.01,2013-01-08 02:16:00,
2013-01-07 20:20:00,33.6,21.2,30.07,South,180,0.0,0.0,60,0.00,,CLR,0.00,VWS V14.01,2013-01-08 02:20:00,
2013-01-07 20:23:00,33.4,21.0,30.07,SSW,202,0.0,0.0,60,0.00,,CLR,0.00,VWS V14.01,2013-01-08 02:23:00,
2013-01-07 20:25:00,33.4,21.0,30.07,SSW,202,0.0,0.0,60,0.00,,CLR,0.00,VWS V14.01,2013-01-08 02:25:00,
2013-01-07 20:29:00,33.2,20.8,30.07,South,180,0.0,0.0,60,0.00,,CLR,0.00,VWS V14.01,2013-01-08 02:29:00,
2013-01-07 20:30:00,33.2,20.8,30.07,SSE,158,0.0,0.0,60,0.00,,CLR,0.00,VWS V14.01,2013-01-08 02:30:00,
2013-01-07 20:31:00,33.2,21.2,30.07,South,180,0.0,2.6,61,0.00,,CLR,0.00,VWS V14.01,2013-01-08 02:31:00,
2013-01-07 20:33:00,33.0,21.0,30.07,South,180,0.0,0.0,61,0.00,,CLR,0.00,VWS V14.01,2013-01-08 02:33:00,
2013-01-07 20:35:00,33.0,21.0,30.07,South,180,0.0,0.0,61,0.00,,CLR,0.00,VWS V14.01,2013-01-08 02:35:00,
2013-01-07 20:39:00,33.0,21.0,30.07,South,180,2.2,2.2,61,0.00,,CLR,0.00,VWS V14.01,2013-01-08 02:39:00,
2013-01-07 20:40:00,32.9,20.9,30.07,SSW,202,8.0,8.0,61,0.00,,CLR,0.00,VWS V14.01,2013-01-08 02:40:00,
2013-01-07 20:43:00,33.0,21.0,30.07,South,180,0.0,1.2,61,0.00,,CLR,0.00,VWS V14.01,2013-01-08 02:43:00,
2013-01-07 20:45:00,33.0,21.4,30.07,South,180,0.0,0.0,62,0.00,,CLR,0.00,VWS V14.01,2013-01-08 02:45:00,
2013-01-07 20:47:00,32.9,21.3,30.07,South,180,0.0,0.0,62,0.00,,CLR,0.00,VWS V14.01,2013-01-08 02:47:00,
2013-01-07 20:49:00,32.9,21.3,30.07,SSW,202,0.0,3.4,62,0.00,,CLR,0.00,VWS V14.01,2013-01-08 02:49:00,
2013-01-07 20:51:00,32.9,21.3,30.07,SSE,158,0.0,0.0,62,0.00,,CLR,0.00,VWS V14.01,2013-01-08 02:51:00,
2013-01-07 20:53:00,32.9,21.3,30.07,SSE,158,0.0,0.0,62,0.00,,CLR,0.00,VWS V14.01,2013-01-08 02:53:00,
2013-01-07 20:56:00,32.7,21.1,30.07,South,180,0.0,0.0,62,0.00,,CLR,0.00,VWS V14.01,2013-01-08 02:56:00,
2013-01-07 20:57:00,32.9,21.3,30.06,South,180,0.0,0.0,62,0.00,,CLR,0.00,VWS V14.01,2013-01-08 02:57:00,
2013-01-07 20:58:00,32.9,21.3,30.06,South,180,0.0,0.0,62,0.00,,CLR,0.00,VWS V14.01,2013-01-08 02:58:00,
2013-01-07 21:01:00,32.7,21.1,30.07,South,180,0.0,0.0,62,0.00,,CLR,0.00,VWS V14.01,2013-01-08 03:01:00,
2013-01-07 21:03:00,32.7,21.1,30.07,SSE,158,0.0,0.0,62,0.00,,CLR,0.00,VWS V14.01,2013-01-08 03:03:00,
2013-01-07 21:05:00,32.5,20.9,30.07,South,180,0.0,0.0,62,0.00,,CLR,0.00,VWS V14.01,2013-01-08 03:05:00,
2013-01-07 21:06:00,32.5,20.9,30.07,SSW,202,0.0,0.0,62,0.00,,CLR,0.00,VWS V14.01,2013-01-08 03:06:00,
2013-01-07 21:09:00,32.5,21.3,30.06,South,180,0.0,0.0,63,0.00,,CLR,0.00,VWS V14.01,2013-01-08 03:09:00,
2013-01-07 21:11:00,32.3,21.1,30.06,SSE,158,0.0,0.0,63,0.00,,CLR,0.00,VWS V14.01,2013-01-08 03:11:00,
2013-01-07 21:12:00,32.3,21.1,30.06,SSE,158,0.0,0.0,63,0.00,,CLR,0.00,VWS V14.01,2013-01-08 03:12:00,
2013-01-07 21:15:00,32.3,21.1,30.06,South,180,0.0,0.0,63,0.00,,CLR,0.00,VWS V14.01,2013-01-08 03:15:00,
2013-01-07 21:16:00,32.3,21.1,30.06,South,180,0.0,0.0,63,0.00,,CLR,0.00,VWS V14.01,2013-01-08 03:16:00,
2013-01-07 21:19:00,32.3,21.1,30.06,South,180,0.0,0.0,63,0.00,,CLR,0.00,VWS V14.01,2013-01-08 03:19:00,
2013-01-07 21:20:00,32.3,21.1,30.06,South,180,0.0,0.0,63,0.00,,CLR,0.00,VWS V14.01,2013-01-08 03:20:00,
2013-01-07 21:23:00,32.3,21.5,30.06,SSW,202,0.0,0.0,64,0.00,,CLR,0.00,VWS V14.01,2013-01-08 03:23:00,
2013-01-07 21:25:00,32.3,21.5,30.06,South,180,0.0,0.0,64,0.00,,CLR,0.00,VWS V14.01,2013-01-08 03:25:00,
2013-01-07 21:29:00,32.3,21.5,30.06,South,180,0.0,0.0,64,0.00,,CLR,0.00,VWS V14.01,2013-01-08 03:29:00,
2013-01-07 21:30:00,32.3,21.5,30.06,South,180,0.0,0.0,64,0.00,,CLR,0.00,VWS V14.01,2013-01-08 03:30:00,
2013-01-07 21:31:00,32.1,21.3,30.06,South,180,0.0,0.0,64,0.00,,CLR,0.00,VWS V14.01,2013-01-08 03:31:00,
2013-01-07 21:34:00,32.1,21.3,30.06,South,180,0.0,0.0,64,0.00,,CLR,0.00,VWS V14.01,2013-01-08 03:34:00,
2013-01-07 21:35:00,32.1,21.3,30.06,SSW,202,0.0,0.0,64,0.00,,CLR,0.00,VWS V14.01,2013-01-08 03:35:00,
2013-01-07 21:39:00,32.1,21.7,30.06,South,180,0.0,0.0,65,0.00,,CLR,0.00,VWS V14.01,2013-01-08 03:39:00,
2013-01-07 21:41:00,32.3,21.9,30.06,South,180,0.0,0.0,65,0.00,,CLR,0.00,VWS V14.01,2013-01-08 03:41:00,
2013-01-07 21:45:00,32.1,21.7,30.06,South,180,0.0,0.0,65,0.00,,CLR,0.00,VWS V14.01,2013-01-08 03:45:00,
2013-01-07 21:46:00,32.3,21.9,30.06,South,180,0.0,0.0,65,0.00,,CLR,0.00,VWS V14.01,2013-01-08 03:46:00,
2013-01-07 21:49:00,32.3,21.9,30.06,South,180,0.0,0.0,65,0.00,,CLR,0.00,VWS V14.01,2013-01-08 03:49:00,
2013-01-07 21:50:00,32.3,21.9,30.06,South,180,0.0,0.0,65,0.00,,CLR,0.00,VWS V14.01,2013-01-08 03:50:00,
2013-01-07 21:55:00,32.1,21.7,30.06,SSE,158,0.0,0.0,65,0.00,,CLR,0.00,VWS V14.01,2013-01-08 03:55:00,
2013-01-07 21:58:00,32.1,21.7,30.06,South,180,0.0,0.0,65,0.00,,CLR,0.00,VWS V14.01,2013-01-08 03:58:00,
2013-01-07 22:00:00,32.1,21.7,30.06,South,180,0.0,0.0,65,0.00,,CLR,0.00,VWS V14.01,2013-01-08 04:00:00,
2013-01-07 22:01:00,32.1,21.7,30.06,SSW,202,0.0,0.0,65,0.00,,CLR,0.00,VWS V14.01,2013-01-08 04:01:00,
2013-01-07 22:06:00,32.1,21.7,30.06,SSE,158,0.0,0.0,65,0.00,,CLR,0.00,VWS V14.01,2013-01-08 04:06:00,
2013-01-07 22:07:00,32.1,21.7,30.06,South,180,0.0,0.0,65,0.00,,CLR,0.00,VWS V14.01,2013-01-08 04:07:00,
2013-01-07 22:08:00,32.1,22.0,30.06,South,180,0.0,0.0,66,0.00,,CLR,0.00,VWS V14.01,2013-01-08 04:08:00,
2013-01-07 22:11:00,32.1,22.0,30.06,SSW,202,0.0,1.2,66,0.00,,CLR,0.00,VWS V14.01,2013-01-08 04:11:00,
2013-01-07 22:13:00,32.1,22.0,30.06,South,180,0.0,0.0,66,0.00,,CLR,0.00,VWS V14.01,2013-01-08 04:13:00,
2013-01-07 22:14:00,32.1,22.0,30.06,South,180,0.0,0.0,66,0.00,,CLR,0.00,VWS V14.01,2013-01-08 04:14:00,
2013-01-07 22:15:00,32.1,22.0,30.06,South,180,0.0,0.0,66,0.00,,CLR,0.00,VWS V14.01,2013-01-08 04:15:00,
2013-01-07 22:19:00,32.1,22.0,30.07,South,180,0.0,0.0,66,0.00,,CLR,0.00,VWS V14.01,2013-01-08 04:19:00,
2013-01-07 22:20:00,32.1,22.0,30.07,SSE,158,0.0,0.0,66,0.00,,CLR,0.00,VWS V14.01,2013-01-08 04:20:00,
2013-01-07 22:21:00,32.1,22.0,30.07,South,180,0.0,0.0,66,0.00,,CLR,0.00,VWS V14.01,2013-01-08 04:21:00,
2013-01-07 22:25:00,32.1,22.0,30.06,SSW,202,0.0,0.0,66,0.00,,CLR,0.00,VWS V14.01,2013-01-08 04:25:00,
2013-01-07 22:27:00,32.1,22.0,30.06,SSW,202,0.0,0.0,66,0.00,,CLR,0.00,VWS V14.01,2013-01-08 04:27:00,
2013-01-07 22:28:00,32.1,22.0,30.06,SSW,202,0.0,0.0,66,0.00,,CLR,0.00,VWS V14.01,2013-01-08 04:28:00,
2013-01-07 22:29:00,32.1,22.0,30.06,South,180,0.0,0.0,66,0.00,,CLR,0.00,VWS V14.01,2013-01-08 04:29:00,
2013-01-07 22:31:00,32.1,22.0,30.06,South,180,0.0,0.0,66,0.00,,CLR,0.00,VWS V14.01,2013-01-08 04:31:00,
2013-01-07 22:33:00,32.1,22.0,30.06,South,180,0.0,3.4,66,0.00,,CLR,0.00,VWS V14.01,2013-01-08 04:33:00,
2013-01-07 22:36:00,32.1,22.0,30.07,SSW,202,0.0,0.0,66,0.00,,CLR,0.00,VWS V14.01,2013-01-08 04:36:00,
2013-01-07 22:37:00,32.1,22.0,30.07,South,180,3.4,3.4,66,0.00,,CLR,0.00,VWS V14.01,2013-01-08 04:37:00,
2013-01-07 22:39:00,32.1,22.0,30.07,SSE,158,0.0,3.4,66,0.00,,CLR,0.00,VWS V14.01,2013-01-08 04:39:00,
2013-01-07 22:43:00,32.1,22.0,30.06,SW,225,2.2,4.4,66,0.00,,CLR,0.00,VWS V14.01,2013-01-08 04:43:00,
2013-01-07 22:47:00,32.1,22.0,30.06,South,180,0.0,0.0,66,0.00,,CLR,0.00,VWS V14.01,2013-01-08 04:47:00,
2013-01-07 22:49:00,32.1,22.0,30.07,SW,225,0.0,0.0,66,0.00,,CLR,0.00,VWS V14.01,2013-01-08 04:49:00,
2013-01-07 22:50:00,32.1,22.0,30.07,South,180,0.0,0.0,66,0.00,,CLR,0.00,VWS V14.01,2013-01-08 04:50:00,
2013-01-07 22:53:00,32.1,22.0,30.07,South,180,0.0,0.0,66,0.00,,CLR,0.00,VWS V14.01,2013-01-08 04:53:00,
2013-01-07 22:55:00,32.1,22.0,30.07,SW,225,0.0,0.0,66,0.00,,CLR,0.00,VWS V14.01,2013-01-08 04:55:00,
2013-01-07 22:57:00,32.1,22.0,30.07,SSW,202,0.0,0.0,66,0.00,,CLR,0.00,VWS V14.01,2013-01-08 04:57:00,
2013-01-07 22:59:00,32.0,21.9,30.06,South,180,0.0,0.0,66,0.00,,CLR,0.00,VWS V14.01,2013-01-08 04:59:00,
2013-01-07 23:01:00,32.1,22.0,30.06,SSW,202,0.0,0.0,66,0.00,,CLR,0.00,VWS V14.01,2013-01-08 05:01:00,
2013-01-07 23:03:00,31.8,21.8,30.06,SSE,158,0.0,0.0,66,0.00,,CLR,0.00,VWS V14.01,2013-01-08 05:03:00,
2013-01-07 23:04:00,31.8,22.1,30.06,South,180,0.0,0.0,67,0.00,,CLR,0.00,VWS V14.01,2013-01-08 05:04:00,
2013-01-07 23:07:00,32.0,22.3,30.06,SSW,202,0.0,0.0,67,0.00,,CLR,0.00,VWS V14.01,2013-01-08 05:07:00,
2013-01-07 23:09:00,32.0,22.3,30.06,SSW,202,0.0,0.0,67,0.00,,CLR,0.00,VWS V14.01,2013-01-08 05:09:00,
2013-01-07 23:10:00,32.0,22.3,30.06,South,180,0.0,0.0,67,0.00,,CLR,0.00,VWS V14.01,2013-01-08 05:10:00,
2013-01-07 23:13:00,32.1,22.4,30.06,SSW,202,0.0,0.0,67,0.00,,CLR,0.00,VWS V14.01,2013-01-08 05:13:00,
2013-01-07 23:15:00,31.8,22.1,30.06,SSE,158,0.0,0.0,67,0.00,,CLR,0.00,VWS V14.01,2013-01-08 05:15:00,
2013-01-07 23:16:00,31.8,22.1,30.06,SSE,158,0.0,0.0,67,0.00,,CLR,0.00,VWS V14.01,2013-01-08 05:16:00,
2013-01-07 23:20:00,31.8,22.1,30.06,South,180,0.0,0.0,67,0.00,,CLR,0.00,VWS V14.01,2013-01-08 05:20:00,
2013-01-07 23:21:00,31.6,21.9,30.06,South,180,0.0,0.0,67,0.00,,CLR,0.00,VWS V14.01,2013-01-08 05:21:00,
2013-01-07 23:23:00,31.6,21.9,30.06,SSW,202,0.0,0.0,67,0.00,,CLR,0.00,VWS V14.01,2013-01-08 05:23:00,
2013-01-07 23:26:00,31.6,21.9,30.06,South,180,0.0,0.0,67,0.00,,CLR,0.00,VWS V14.01,2013-01-08 05:26:00,
2013-01-07 23:28:00,31.6,21.9,30.06,South,180,0.0,0.0,67,0.00,,CLR,0.00,VWS V14.01,2013-01-08 05:28:00,
2013-01-07 23:29:00,31.6,21.9,30.06,SSW,202,0.0,0.0,67,0.00,,CLR,0.00,VWS V14.01,2013-01-08 05:29:00,
2013-01-07 23:34:00,31.6,21.9,30.06,SSW,202,0.0,0.0,67,0.00,,CLR,0.00,VWS V14.01,2013-01-08 05:34:00,
2013-01-07 23:35:00,31.4,21.7,30.06,South,180,0.0,0.0,67,0.00,,CLR,0.00,VWS V14.01,2013-01-08 05:35:00,
2013-01-07 23:36:00,31.4,21.7,30.06,SSE,158,0.0,0.0,67,0.00,,CLR,0.00,VWS V14.01,2013-01-08 05:36:00,
2013-01-07 23:40:00,31.4,21.7,30.06,SSE,158,0.0,0.0,67,0.00,,CLR,0.00,VWS V14.01,2013-01-08 05:40:00,
2013-01-07 23:41:00,31.4,21.7,30.06,South,180,0.0,0.0,67,0.00,,CLR,0.00,VWS V14.01,2013-01-08 05:41:00,
2013-01-07 23:45:00,31.4,21.7,30.06,South,180,1.6,1.6,67,0.00,,CLR,0.00,VWS V14.01,2013-01-08 05:45:00,
2013-01-07 23:46:00,31.4,21.7,30.07,South,180,0.8,0.8,67,0.00,,CLR,0.00,VWS V14.01,2013-01-08 05:46:00,
2013-01-07 23:47:00,31.4,21.7,30.06,SSW,202,0.0,0.8,67,0.00,,CLR,0.00,VWS V14.01,2013-01-08 05:47:00,
2013-01-07 23:50:00,31.4,22.1,30.07,South,180,0.0,0.0,68,0.00,,CLR,0.00,VWS V14.01,2013-01-08 05:50:00,
2013-01-07 23:52:00,31.4,22.1,30.06,SSW,202,3.0,3.0,68,0.00,,CLR,0.00,VWS V14.01,2013-01-08 05:52:00,
2013-01-07 23:53:00,31.4,22.1,30.06,South,180,0.0,3.0,68,0.00,,CLR,0.00,VWS V14.01,2013-01-08 05:53:00,
2013-01-07 23:59:00,31.4,22.1,30.06,SSW,202,0.0,0.0,68,0.00,,CLR,0.00,VWS V14.01,2013-01-08 05:59:00,